<?xml version="1.0" encoding="UTF-8" standalone="no" ?>
<gpx xmlns="http://www.topografix.com/GPX/1/1" xmlns:xsi="http://www.w3.org/2001/XMLSchema-instance" xsi:schemaLocation="http://www.topografix.com/GPX/1/1 http://www.topografix.com/GPX/1/1/gpx.xsd" version="1.1" creator="VisuGPX - https://www.visugpx.com">
  <metadata>
    <name>J3 Porto Pollo - Olmeto</name>
    <desc><![CDATA[Pour info: afin d'éviter le passage sur la route au début, peut être qu'il serait mieux de faire le littorale jusqu'à Punta di Bitussi]]></desc>
  </metadata>
  <trk>
    <name><![CDATA[27-AVR-22 04:25:45 PM]]></name>
    <extensions>
      <line xmlns="http://www.topografix.com/GPX/gpx_style/0/2">
        <color>0000FF</color>
        <width>4</width>
      </line>
    </extensions>
    <trkseg>
      <trkpt lat="41.7105" lon="8.79553">
        <ele>8.31</ele>
        <time>2022-04-26T16:36:25Z</time>
      </trkpt>
      <trkpt lat="41.71052" lon="8.79555">
        <ele>8.31</ele>
        <time>2022-04-26T16:36:50Z</time>
      </trkpt>
      <trkpt lat="41.71053" lon="8.79561">
        <ele>7.83</ele>
        <time>2022-04-26T16:37:04Z</time>
      </trkpt>
      <trkpt lat="41.71053" lon="8.79561">
        <ele>6.39</ele>
        <time>2022-04-26T16:37:12Z</time>
      </trkpt>
      <trkpt lat="41.71053" lon="8.79561">
        <ele>-14.28</ele>
        <time>2022-04-27T08:01:02Z</time>
      </trkpt>
      <trkpt lat="41.71049" lon="8.79557">
        <ele>-14.28</ele>
        <time>2022-04-27T08:01:03Z</time>
      </trkpt>
      <trkpt lat="41.71054" lon="8.79559">
        <ele>-14.28</ele>
        <time>2022-04-27T08:01:32Z</time>
      </trkpt>
      <trkpt lat="41.71049" lon="8.79555">
        <ele>-10.44</ele>
        <time>2022-04-27T08:01:44Z</time>
      </trkpt>
      <trkpt lat="41.71048" lon="8.79554">
        <ele>-9</ele>
        <time>2022-04-27T08:01:47Z</time>
      </trkpt>
      <trkpt lat="41.71048" lon="8.79554">
        <ele>-5.15</ele>
        <time>2022-04-27T08:01:51Z</time>
      </trkpt>
      <trkpt lat="41.71047" lon="8.79555">
        <ele>-3.23</ele>
        <time>2022-04-27T08:01:55Z</time>
      </trkpt>
      <trkpt lat="41.71048" lon="8.79555">
        <ele>0.14</ele>
        <time>2022-04-27T08:02:01Z</time>
      </trkpt>
      <trkpt lat="41.71046" lon="8.79555">
        <ele>2.54</ele>
        <time>2022-04-27T08:02:06Z</time>
      </trkpt>
      <trkpt lat="41.71046" lon="8.79555">
        <ele>5.42</ele>
        <time>2022-04-27T08:02:12Z</time>
      </trkpt>
      <trkpt lat="41.71045" lon="8.79555">
        <ele>5.42</ele>
        <time>2022-04-27T08:02:13Z</time>
      </trkpt>
      <trkpt lat="41.71045" lon="8.79556">
        <ele>8.79</ele>
        <time>2022-04-27T08:02:23Z</time>
      </trkpt>
      <trkpt lat="41.71046" lon="8.79556">
        <ele>12.15</ele>
        <time>2022-04-27T08:02:39Z</time>
      </trkpt>
      <trkpt lat="41.7105" lon="8.79555">
        <ele>16</ele>
        <time>2022-04-27T08:03:11Z</time>
      </trkpt>
      <trkpt lat="41.71049" lon="8.79556">
        <ele>16.96</ele>
        <time>2022-04-27T08:03:19Z</time>
      </trkpt>
      <trkpt lat="41.71054" lon="8.79559">
        <ele>16.96</ele>
        <time>2022-04-27T08:03:32Z</time>
      </trkpt>
      <trkpt lat="41.71056" lon="8.79552">
        <ele>16.48</ele>
        <time>2022-04-27T08:03:58Z</time>
      </trkpt>
      <trkpt lat="41.71059" lon="8.79562">
        <ele>16</ele>
        <time>2022-04-27T08:04:32Z</time>
      </trkpt>
      <trkpt lat="41.71056" lon="8.79565">
        <ele>16</ele>
        <time>2022-04-27T08:05:05Z</time>
      </trkpt>
      <trkpt lat="41.71052" lon="8.79567">
        <ele>11.19</ele>
        <time>2022-04-27T08:05:38Z</time>
      </trkpt>
      <trkpt lat="41.71053" lon="8.79567">
        <ele>11.19</ele>
        <time>2022-04-27T08:05:39Z</time>
      </trkpt>
      <trkpt lat="41.71053" lon="8.7957">
        <ele>12.15</ele>
        <time>2022-04-27T08:06:04Z</time>
      </trkpt>
      <trkpt lat="41.71047" lon="8.79568">
        <ele>12.15</ele>
        <time>2022-04-27T08:06:29Z</time>
      </trkpt>
      <trkpt lat="41.71053" lon="8.79566">
        <ele>11.67</ele>
        <time>2022-04-27T08:06:45Z</time>
      </trkpt>
      <trkpt lat="41.71057" lon="8.79575">
        <ele>12.15</ele>
        <time>2022-04-27T08:07:09Z</time>
      </trkpt>
      <trkpt lat="41.71058" lon="8.79584">
        <ele>12.15</ele>
        <time>2022-04-27T08:07:26Z</time>
      </trkpt>
      <trkpt lat="41.71061" lon="8.79582">
        <ele>12.15</ele>
        <time>2022-04-27T08:07:50Z</time>
      </trkpt>
      <trkpt lat="41.71058" lon="8.79583">
        <ele>12.63</ele>
        <time>2022-04-27T08:08:15Z</time>
      </trkpt>
      <trkpt lat="41.71062" lon="8.796">
        <ele>12.15</ele>
        <time>2022-04-27T08:08:30Z</time>
      </trkpt>
      <trkpt lat="41.71075" lon="8.79621">
        <ele>12.63</ele>
        <time>2022-04-27T08:08:50Z</time>
      </trkpt>
      <trkpt lat="41.7108" lon="8.79624">
        <ele>12.15</ele>
        <time>2022-04-27T08:09:07Z</time>
      </trkpt>
      <trkpt lat="41.71092" lon="8.79633">
        <ele>12.15</ele>
        <time>2022-04-27T08:09:22Z</time>
      </trkpt>
      <trkpt lat="41.71106" lon="8.79651">
        <ele>12.15</ele>
        <time>2022-04-27T08:09:39Z</time>
      </trkpt>
      <trkpt lat="41.71108" lon="8.79667">
        <ele>12.15</ele>
        <time>2022-04-27T08:09:50Z</time>
      </trkpt>
      <trkpt lat="41.71111" lon="8.79699">
        <ele>11.67</ele>
        <time>2022-04-27T08:10:09Z</time>
      </trkpt>
      <trkpt lat="41.71113" lon="8.79726">
        <ele>11.19</ele>
        <time>2022-04-27T08:10:28Z</time>
      </trkpt>
      <trkpt lat="41.71114" lon="8.79754">
        <ele>12.15</ele>
        <time>2022-04-27T08:10:46Z</time>
      </trkpt>
      <trkpt lat="41.71117" lon="8.79762">
        <ele>11.67</ele>
        <time>2022-04-27T08:11:02Z</time>
      </trkpt>
      <trkpt lat="41.71118" lon="8.79788">
        <ele>11.67</ele>
        <time>2022-04-27T08:11:20Z</time>
      </trkpt>
      <trkpt lat="41.71121" lon="8.7981">
        <ele>11.67</ele>
        <time>2022-04-27T08:11:36Z</time>
      </trkpt>
      <trkpt lat="41.71127" lon="8.79831">
        <ele>12.15</ele>
        <time>2022-04-27T08:11:54Z</time>
      </trkpt>
      <trkpt lat="41.7113" lon="8.79839">
        <ele>12.15</ele>
        <time>2022-04-27T08:12:19Z</time>
      </trkpt>
      <trkpt lat="41.71141" lon="8.79869">
        <ele>11.67</ele>
        <time>2022-04-27T08:12:38Z</time>
      </trkpt>
      <trkpt lat="41.71146" lon="8.79883">
        <ele>11.67</ele>
        <time>2022-04-27T08:12:53Z</time>
      </trkpt>
      <trkpt lat="41.71154" lon="8.79912">
        <ele>11.67</ele>
        <time>2022-04-27T08:13:13Z</time>
      </trkpt>
      <trkpt lat="41.71155" lon="8.79912">
        <ele>11.67</ele>
        <time>2022-04-27T08:13:35Z</time>
      </trkpt>
      <trkpt lat="41.71159" lon="8.79946">
        <ele>11.67</ele>
        <time>2022-04-27T08:13:56Z</time>
      </trkpt>
      <trkpt lat="41.71165" lon="8.79978">
        <ele>11.67</ele>
        <time>2022-04-27T08:14:15Z</time>
      </trkpt>
      <trkpt lat="41.71167" lon="8.80005">
        <ele>11.19</ele>
        <time>2022-04-27T08:14:35Z</time>
      </trkpt>
      <trkpt lat="41.71168" lon="8.80036">
        <ele>12.15</ele>
        <time>2022-04-27T08:14:54Z</time>
      </trkpt>
      <trkpt lat="41.71168" lon="8.80069">
        <ele>12.15</ele>
        <time>2022-04-27T08:15:14Z</time>
      </trkpt>
      <trkpt lat="41.71169" lon="8.80099">
        <ele>12.63</ele>
        <time>2022-04-27T08:15:33Z</time>
      </trkpt>
      <trkpt lat="41.7117" lon="8.80102">
        <ele>12.63</ele>
        <time>2022-04-27T08:15:35Z</time>
      </trkpt>
      <trkpt lat="41.71174" lon="8.80123">
        <ele>12.63</ele>
        <time>2022-04-27T08:15:47Z</time>
      </trkpt>
      <trkpt lat="41.71185" lon="8.80153">
        <ele>12.63</ele>
        <time>2022-04-27T08:16:08Z</time>
      </trkpt>
      <trkpt lat="41.71191" lon="8.80179">
        <ele>12.15</ele>
        <time>2022-04-27T08:16:26Z</time>
      </trkpt>
      <trkpt lat="41.71195" lon="8.80211">
        <ele>12.63</ele>
        <time>2022-04-27T08:16:45Z</time>
      </trkpt>
      <trkpt lat="41.71196" lon="8.80243">
        <ele>12.63</ele>
        <time>2022-04-27T08:17:05Z</time>
      </trkpt>
      <trkpt lat="41.71197" lon="8.8027">
        <ele>12.63</ele>
        <time>2022-04-27T08:17:23Z</time>
      </trkpt>
      <trkpt lat="41.71198" lon="8.80272">
        <ele>13.12</ele>
        <time>2022-04-27T08:17:28Z</time>
      </trkpt>
      <trkpt lat="41.71205" lon="8.80274">
        <ele>13.12</ele>
        <time>2022-04-27T08:17:40Z</time>
      </trkpt>
      <trkpt lat="41.71215" lon="8.80289">
        <ele>14.08</ele>
        <time>2022-04-27T08:17:56Z</time>
      </trkpt>
      <trkpt lat="41.71209" lon="8.80291">
        <ele>13.12</ele>
        <time>2022-04-27T08:18:12Z</time>
      </trkpt>
      <trkpt lat="41.71208" lon="8.80297">
        <ele>13.6</ele>
        <time>2022-04-27T08:18:25Z</time>
      </trkpt>
      <trkpt lat="41.71212" lon="8.80308">
        <ele>13.6</ele>
        <time>2022-04-27T08:18:35Z</time>
      </trkpt>
      <trkpt lat="41.71217" lon="8.80338">
        <ele>13.6</ele>
        <time>2022-04-27T08:18:55Z</time>
      </trkpt>
      <trkpt lat="41.71215" lon="8.80366">
        <ele>13.12</ele>
        <time>2022-04-27T08:19:11Z</time>
      </trkpt>
      <trkpt lat="41.71224" lon="8.80392">
        <ele>13.12</ele>
        <time>2022-04-27T08:19:29Z</time>
      </trkpt>
      <trkpt lat="41.71224" lon="8.80394">
        <ele>13.12</ele>
        <time>2022-04-27T08:19:30Z</time>
      </trkpt>
      <trkpt lat="41.71228" lon="8.80401">
        <ele>13.12</ele>
        <time>2022-04-27T08:19:35Z</time>
      </trkpt>
      <trkpt lat="41.71237" lon="8.80429">
        <ele>13.12</ele>
        <time>2022-04-27T08:19:54Z</time>
      </trkpt>
      <trkpt lat="41.71245" lon="8.80456">
        <ele>13.12</ele>
        <time>2022-04-27T08:20:13Z</time>
      </trkpt>
      <trkpt lat="41.71254" lon="8.80473">
        <ele>13.6</ele>
        <time>2022-04-27T08:20:28Z</time>
      </trkpt>
      <trkpt lat="41.71258" lon="8.80484">
        <ele>14.08</ele>
        <time>2022-04-27T08:20:52Z</time>
      </trkpt>
      <trkpt lat="41.71268" lon="8.80495">
        <ele>14.08</ele>
        <time>2022-04-27T08:21:08Z</time>
      </trkpt>
      <trkpt lat="41.7128" lon="8.80506">
        <ele>13.12</ele>
        <time>2022-04-27T08:21:27Z</time>
      </trkpt>
      <trkpt lat="41.713" lon="8.80525">
        <ele>13.6</ele>
        <time>2022-04-27T08:21:45Z</time>
      </trkpt>
      <trkpt lat="41.71321" lon="8.80542">
        <ele>14.08</ele>
        <time>2022-04-27T08:22:04Z</time>
      </trkpt>
      <trkpt lat="41.71339" lon="8.80551">
        <ele>15.04</ele>
        <time>2022-04-27T08:22:21Z</time>
      </trkpt>
      <trkpt lat="41.71344" lon="8.80552">
        <ele>11.67</ele>
        <time>2022-04-27T08:22:26Z</time>
      </trkpt>
      <trkpt lat="41.71358" lon="8.80554">
        <ele>13.6</ele>
        <time>2022-04-27T08:22:37Z</time>
      </trkpt>
      <trkpt lat="41.71375" lon="8.80555">
        <ele>13.6</ele>
        <time>2022-04-27T08:22:52Z</time>
      </trkpt>
      <trkpt lat="41.71398" lon="8.8056">
        <ele>14.56</ele>
        <time>2022-04-27T08:23:11Z</time>
      </trkpt>
      <trkpt lat="41.71423" lon="8.80559">
        <ele>12.63</ele>
        <time>2022-04-27T08:23:31Z</time>
      </trkpt>
      <trkpt lat="41.71445" lon="8.80562">
        <ele>13.12</ele>
        <time>2022-04-27T08:23:49Z</time>
      </trkpt>
      <trkpt lat="41.71467" lon="8.80568">
        <ele>12.63</ele>
        <time>2022-04-27T08:24:06Z</time>
      </trkpt>
      <trkpt lat="41.71488" lon="8.80577">
        <ele>12.63</ele>
        <time>2022-04-27T08:24:23Z</time>
      </trkpt>
      <trkpt lat="41.71509" lon="8.8059">
        <ele>12.15</ele>
        <time>2022-04-27T08:24:41Z</time>
      </trkpt>
      <trkpt lat="41.71528" lon="8.80602">
        <ele>12.15</ele>
        <time>2022-04-27T08:24:58Z</time>
      </trkpt>
      <trkpt lat="41.71548" lon="8.80619">
        <ele>11.19</ele>
        <time>2022-04-27T08:25:16Z</time>
      </trkpt>
      <trkpt lat="41.71546" lon="8.80622">
        <ele>10.71</ele>
        <time>2022-04-27T08:25:28Z</time>
      </trkpt>
      <trkpt lat="41.71549" lon="8.80624">
        <ele>11.19</ele>
        <time>2022-04-27T08:25:50Z</time>
      </trkpt>
      <trkpt lat="41.71554" lon="8.80635">
        <ele>11.19</ele>
        <time>2022-04-27T08:25:58Z</time>
      </trkpt>
      <trkpt lat="41.71559" lon="8.8067">
        <ele>11.19</ele>
        <time>2022-04-27T08:26:17Z</time>
      </trkpt>
      <trkpt lat="41.71566" lon="8.80705">
        <ele>10.71</ele>
        <time>2022-04-27T08:26:38Z</time>
      </trkpt>
      <trkpt lat="41.71567" lon="8.80718">
        <ele>11.19</ele>
        <time>2022-04-27T08:26:46Z</time>
      </trkpt>
      <trkpt lat="41.71573" lon="8.80754">
        <ele>10.71</ele>
        <time>2022-04-27T08:27:07Z</time>
      </trkpt>
      <trkpt lat="41.71581" lon="8.80787">
        <ele>8.79</ele>
        <time>2022-04-27T08:27:28Z</time>
      </trkpt>
      <trkpt lat="41.71594" lon="8.80815">
        <ele>9.75</ele>
        <time>2022-04-27T08:27:46Z</time>
      </trkpt>
      <trkpt lat="41.71593" lon="8.80823">
        <ele>10.23</ele>
        <time>2022-04-27T08:28:04Z</time>
      </trkpt>
      <trkpt lat="41.71602" lon="8.80833">
        <ele>10.23</ele>
        <time>2022-04-27T08:28:21Z</time>
      </trkpt>
      <trkpt lat="41.71614" lon="8.80855">
        <ele>9.75</ele>
        <time>2022-04-27T08:28:37Z</time>
      </trkpt>
      <trkpt lat="41.71624" lon="8.80885">
        <ele>9.27</ele>
        <time>2022-04-27T08:28:55Z</time>
      </trkpt>
      <trkpt lat="41.71627" lon="8.809">
        <ele>8.79</ele>
        <time>2022-04-27T08:29:05Z</time>
      </trkpt>
      <trkpt lat="41.71626" lon="8.80902">
        <ele>8.79</ele>
        <time>2022-04-27T08:29:11Z</time>
      </trkpt>
      <trkpt lat="41.71628" lon="8.80905">
        <ele>8.79</ele>
        <time>2022-04-27T08:29:14Z</time>
      </trkpt>
      <trkpt lat="41.71636" lon="8.80936">
        <ele>9.27</ele>
        <time>2022-04-27T08:29:33Z</time>
      </trkpt>
      <trkpt lat="41.71646" lon="8.80963">
        <ele>8.79</ele>
        <time>2022-04-27T08:29:51Z</time>
      </trkpt>
      <trkpt lat="41.71658" lon="8.80987">
        <ele>8.31</ele>
        <time>2022-04-27T08:30:08Z</time>
      </trkpt>
      <trkpt lat="41.7166" lon="8.80988">
        <ele>8.79</ele>
        <time>2022-04-27T08:30:11Z</time>
      </trkpt>
      <trkpt lat="41.71665" lon="8.80979">
        <ele>9.27</ele>
        <time>2022-04-27T08:30:27Z</time>
      </trkpt>
      <trkpt lat="41.71662" lon="8.80985">
        <ele>8.31</ele>
        <time>2022-04-27T08:30:40Z</time>
      </trkpt>
      <trkpt lat="41.71665" lon="8.80992">
        <ele>8.31</ele>
        <time>2022-04-27T08:30:45Z</time>
      </trkpt>
      <trkpt lat="41.71666" lon="8.81002">
        <ele>8.31</ele>
        <time>2022-04-27T08:30:50Z</time>
      </trkpt>
      <trkpt lat="41.71678" lon="8.81035">
        <ele>7.83</ele>
        <time>2022-04-27T08:31:10Z</time>
      </trkpt>
      <trkpt lat="41.71685" lon="8.81042">
        <ele>7.83</ele>
        <time>2022-04-27T08:31:28Z</time>
      </trkpt>
      <trkpt lat="41.71686" lon="8.81044">
        <ele>8.31</ele>
        <time>2022-04-27T08:31:37Z</time>
      </trkpt>
      <trkpt lat="41.71684" lon="8.81055">
        <ele>8.31</ele>
        <time>2022-04-27T08:31:43Z</time>
      </trkpt>
      <trkpt lat="41.71695" lon="8.81075">
        <ele>7.83</ele>
        <time>2022-04-27T08:32:00Z</time>
      </trkpt>
      <trkpt lat="41.7171" lon="8.81106">
        <ele>7.35</ele>
        <time>2022-04-27T08:32:20Z</time>
      </trkpt>
      <trkpt lat="41.71727" lon="8.81138">
        <ele>7.83</ele>
        <time>2022-04-27T08:32:42Z</time>
      </trkpt>
      <trkpt lat="41.71747" lon="8.81175">
        <ele>6.87</ele>
        <time>2022-04-27T08:33:05Z</time>
      </trkpt>
      <trkpt lat="41.71766" lon="8.81208">
        <ele>6.39</ele>
        <time>2022-04-27T08:33:27Z</time>
      </trkpt>
      <trkpt lat="41.71783" lon="8.81232">
        <ele>5.91</ele>
        <time>2022-04-27T08:33:45Z</time>
      </trkpt>
      <trkpt lat="41.71801" lon="8.81256">
        <ele>5.91</ele>
        <time>2022-04-27T08:34:03Z</time>
      </trkpt>
      <trkpt lat="41.71826" lon="8.81289">
        <ele>5.42</ele>
        <time>2022-04-27T08:34:27Z</time>
      </trkpt>
      <trkpt lat="41.71836" lon="8.81301">
        <ele>4.94</ele>
        <time>2022-04-27T08:34:44Z</time>
      </trkpt>
      <trkpt lat="41.71846" lon="8.81315">
        <ele>4.94</ele>
        <time>2022-04-27T08:34:57Z</time>
      </trkpt>
      <trkpt lat="41.71863" lon="8.81339">
        <ele>4.46</ele>
        <time>2022-04-27T08:35:16Z</time>
      </trkpt>
      <trkpt lat="41.71883" lon="8.81365">
        <ele>4.46</ele>
        <time>2022-04-27T08:35:37Z</time>
      </trkpt>
      <trkpt lat="41.71902" lon="8.81393">
        <ele>3.98</ele>
        <time>2022-04-27T08:35:58Z</time>
      </trkpt>
      <trkpt lat="41.71915" lon="8.81413">
        <ele>4.94</ele>
        <time>2022-04-27T08:36:13Z</time>
      </trkpt>
      <trkpt lat="41.71941" lon="8.81437">
        <ele>4.46</ele>
        <time>2022-04-27T08:36:36Z</time>
      </trkpt>
      <trkpt lat="41.71946" lon="8.8144">
        <ele>4.46</ele>
        <time>2022-04-27T08:36:47Z</time>
      </trkpt>
      <trkpt lat="41.71961" lon="8.81465">
        <ele>4.46</ele>
        <time>2022-04-27T08:37:05Z</time>
      </trkpt>
      <trkpt lat="41.71985" lon="8.81499">
        <ele>4.46</ele>
        <time>2022-04-27T08:37:29Z</time>
      </trkpt>
      <trkpt lat="41.72005" lon="8.81527">
        <ele>3.98</ele>
        <time>2022-04-27T08:37:49Z</time>
      </trkpt>
      <trkpt lat="41.72023" lon="8.81553">
        <ele>4.46</ele>
        <time>2022-04-27T08:38:08Z</time>
      </trkpt>
      <trkpt lat="41.72037" lon="8.81572">
        <ele>4.46</ele>
        <time>2022-04-27T08:38:24Z</time>
      </trkpt>
      <trkpt lat="41.72055" lon="8.81593">
        <ele>4.46</ele>
        <time>2022-04-27T08:38:42Z</time>
      </trkpt>
      <trkpt lat="41.72071" lon="8.81619">
        <ele>4.94</ele>
        <time>2022-04-27T08:39:01Z</time>
      </trkpt>
      <trkpt lat="41.72087" lon="8.81641">
        <ele>4.46</ele>
        <time>2022-04-27T08:39:21Z</time>
      </trkpt>
      <trkpt lat="41.72102" lon="8.81664">
        <ele>4.94</ele>
        <time>2022-04-27T08:39:38Z</time>
      </trkpt>
      <trkpt lat="41.72111" lon="8.81676">
        <ele>4.94</ele>
        <time>2022-04-27T08:39:48Z</time>
      </trkpt>
      <trkpt lat="41.7211" lon="8.81689">
        <ele>4.94</ele>
        <time>2022-04-27T08:40:03Z</time>
      </trkpt>
      <trkpt lat="41.72111" lon="8.81689">
        <ele>4.94</ele>
        <time>2022-04-27T08:40:04Z</time>
      </trkpt>
      <trkpt lat="41.72118" lon="8.81695">
        <ele>5.42</ele>
        <time>2022-04-27T08:40:10Z</time>
      </trkpt>
      <trkpt lat="41.72123" lon="8.81699">
        <ele>4.94</ele>
        <time>2022-04-27T08:40:15Z</time>
      </trkpt>
      <trkpt lat="41.72134" lon="8.81714">
        <ele>4.94</ele>
        <time>2022-04-27T08:40:28Z</time>
      </trkpt>
      <trkpt lat="41.72152" lon="8.81738">
        <ele>5.42</ele>
        <time>2022-04-27T08:40:47Z</time>
      </trkpt>
      <trkpt lat="41.72158" lon="8.81747">
        <ele>5.42</ele>
        <time>2022-04-27T08:40:55Z</time>
      </trkpt>
      <trkpt lat="41.72179" lon="8.81774">
        <ele>5.91</ele>
        <time>2022-04-27T08:41:15Z</time>
      </trkpt>
      <trkpt lat="41.72191" lon="8.81807">
        <ele>5.91</ele>
        <time>2022-04-27T08:41:34Z</time>
      </trkpt>
      <trkpt lat="41.72201" lon="8.81844">
        <ele>5.91</ele>
        <time>2022-04-27T08:41:55Z</time>
      </trkpt>
      <trkpt lat="41.72211" lon="8.81879">
        <ele>5.91</ele>
        <time>2022-04-27T08:42:16Z</time>
      </trkpt>
      <trkpt lat="41.72221" lon="8.81913">
        <ele>5.91</ele>
        <time>2022-04-27T08:42:37Z</time>
      </trkpt>
      <trkpt lat="41.72225" lon="8.8193">
        <ele>5.91</ele>
        <time>2022-04-27T08:42:55Z</time>
      </trkpt>
      <trkpt lat="41.72225" lon="8.8193">
        <ele>6.39</ele>
        <time>2022-04-27T08:43:01Z</time>
      </trkpt>
      <trkpt lat="41.72234" lon="8.81959">
        <ele>5.91</ele>
        <time>2022-04-27T08:43:20Z</time>
      </trkpt>
      <trkpt lat="41.72248" lon="8.81959">
        <ele>6.39</ele>
        <time>2022-04-27T08:43:36Z</time>
      </trkpt>
      <trkpt lat="41.72253" lon="8.8197">
        <ele>6.39</ele>
        <time>2022-04-27T08:43:50Z</time>
      </trkpt>
      <trkpt lat="41.72252" lon="8.81972">
        <ele>6.39</ele>
        <time>2022-04-27T08:44:03Z</time>
      </trkpt>
      <trkpt lat="41.72251" lon="8.81966">
        <ele>6.39</ele>
        <time>2022-04-27T08:44:31Z</time>
      </trkpt>
      <trkpt lat="41.72254" lon="8.81973">
        <ele>6.39</ele>
        <time>2022-04-27T08:44:55Z</time>
      </trkpt>
      <trkpt lat="41.72256" lon="8.81973">
        <ele>6.87</ele>
        <time>2022-04-27T08:45:28Z</time>
      </trkpt>
      <trkpt lat="41.72257" lon="8.81972">
        <ele>6.39</ele>
        <time>2022-04-27T08:46:04Z</time>
      </trkpt>
      <trkpt lat="41.72258" lon="8.81972">
        <ele>6.39</ele>
        <time>2022-04-27T08:46:36Z</time>
      </trkpt>
      <trkpt lat="41.72254" lon="8.8197">
        <ele>6.39</ele>
        <time>2022-04-27T08:46:55Z</time>
      </trkpt>
      <trkpt lat="41.7225" lon="8.81963">
        <ele>6.39</ele>
        <time>2022-04-27T08:47:22Z</time>
      </trkpt>
      <trkpt lat="41.72253" lon="8.81968">
        <ele>6.39</ele>
        <time>2022-04-27T08:47:41Z</time>
      </trkpt>
      <trkpt lat="41.72251" lon="8.8197">
        <ele>6.39</ele>
        <time>2022-04-27T08:47:58Z</time>
      </trkpt>
      <trkpt lat="41.72251" lon="8.81969">
        <ele>6.39</ele>
        <time>2022-04-27T08:48:20Z</time>
      </trkpt>
      <trkpt lat="41.72249" lon="8.81965">
        <ele>6.87</ele>
        <time>2022-04-27T08:48:38Z</time>
      </trkpt>
      <trkpt lat="41.7225" lon="8.81965">
        <ele>6.87</ele>
        <time>2022-04-27T08:48:56Z</time>
      </trkpt>
      <trkpt lat="41.7225" lon="8.81961">
        <ele>7.35</ele>
        <time>2022-04-27T08:49:23Z</time>
      </trkpt>
      <trkpt lat="41.72251" lon="8.81957">
        <ele>6.87</ele>
        <time>2022-04-27T08:49:45Z</time>
      </trkpt>
      <trkpt lat="41.72255" lon="8.81971">
        <ele>7.35</ele>
        <time>2022-04-27T08:50:09Z</time>
      </trkpt>
      <trkpt lat="41.72257" lon="8.81976">
        <ele>7.35</ele>
        <time>2022-04-27T08:50:31Z</time>
      </trkpt>
      <trkpt lat="41.72259" lon="8.81976">
        <ele>7.35</ele>
        <time>2022-04-27T08:50:58Z</time>
      </trkpt>
      <trkpt lat="41.72261" lon="8.81975">
        <ele>7.35</ele>
        <time>2022-04-27T08:51:33Z</time>
      </trkpt>
      <trkpt lat="41.72257" lon="8.81977">
        <ele>6.39</ele>
        <time>2022-04-27T08:51:54Z</time>
      </trkpt>
      <trkpt lat="41.72256" lon="8.81977">
        <ele>5.91</ele>
        <time>2022-04-27T08:51:59Z</time>
      </trkpt>
      <trkpt lat="41.72257" lon="8.81977">
        <ele>7.83</ele>
        <time>2022-04-27T08:52:01Z</time>
      </trkpt>
      <trkpt lat="41.72257" lon="8.81977">
        <ele>6.87</ele>
        <time>2022-04-27T08:52:03Z</time>
      </trkpt>
      <trkpt lat="41.72257" lon="8.81978">
        <ele>7.83</ele>
        <time>2022-04-27T08:52:41Z</time>
      </trkpt>
      <trkpt lat="41.72257" lon="8.81977">
        <ele>5.91</ele>
        <time>2022-04-27T08:52:44Z</time>
      </trkpt>
      <trkpt lat="41.72257" lon="8.81978">
        <ele>8.79</ele>
        <time>2022-04-27T08:52:45Z</time>
      </trkpt>
      <trkpt lat="41.72257" lon="8.81978">
        <ele>7.83</ele>
        <time>2022-04-27T08:52:46Z</time>
      </trkpt>
      <trkpt lat="41.72255" lon="8.81975">
        <ele>7.35</ele>
        <time>2022-04-27T08:53:12Z</time>
      </trkpt>
      <trkpt lat="41.72253" lon="8.81971">
        <ele>7.83</ele>
        <time>2022-04-27T08:53:27Z</time>
      </trkpt>
      <trkpt lat="41.72253" lon="8.81973">
        <ele>7.35</ele>
        <time>2022-04-27T08:53:53Z</time>
      </trkpt>
      <trkpt lat="41.72254" lon="8.81972">
        <ele>6.39</ele>
        <time>2022-04-27T08:53:59Z</time>
      </trkpt>
      <trkpt lat="41.72257" lon="8.81972">
        <ele>7.35</ele>
        <time>2022-04-27T08:54:26Z</time>
      </trkpt>
      <trkpt lat="41.72256" lon="8.81975">
        <ele>6.87</ele>
        <time>2022-04-27T08:54:49Z</time>
      </trkpt>
      <trkpt lat="41.72256" lon="8.81973">
        <ele>7.35</ele>
        <time>2022-04-27T08:55:06Z</time>
      </trkpt>
      <trkpt lat="41.72253" lon="8.81972">
        <ele>7.35</ele>
        <time>2022-04-27T08:55:26Z</time>
      </trkpt>
      <trkpt lat="41.72254" lon="8.81972">
        <ele>7.83</ele>
        <time>2022-04-27T08:55:48Z</time>
      </trkpt>
      <trkpt lat="41.72252" lon="8.81968">
        <ele>8.31</ele>
        <time>2022-04-27T08:56:11Z</time>
      </trkpt>
      <trkpt lat="41.72252" lon="8.81967">
        <ele>8.31</ele>
        <time>2022-04-27T08:56:35Z</time>
      </trkpt>
      <trkpt lat="41.7225" lon="8.81964">
        <ele>7.83</ele>
        <time>2022-04-27T08:56:56Z</time>
      </trkpt>
      <trkpt lat="41.72248" lon="8.81965">
        <ele>7.83</ele>
        <time>2022-04-27T08:57:18Z</time>
      </trkpt>
      <trkpt lat="41.72251" lon="8.81975">
        <ele>7.83</ele>
        <time>2022-04-27T08:57:53Z</time>
      </trkpt>
      <trkpt lat="41.72252" lon="8.81971">
        <ele>7.83</ele>
        <time>2022-04-27T08:58:16Z</time>
      </trkpt>
      <trkpt lat="41.72251" lon="8.81971">
        <ele>7.83</ele>
        <time>2022-04-27T08:58:52Z</time>
      </trkpt>
      <trkpt lat="41.72251" lon="8.81973">
        <ele>5.42</ele>
        <time>2022-04-27T08:58:59Z</time>
      </trkpt>
      <trkpt lat="41.72247" lon="8.82014">
        <ele>5.91</ele>
        <time>2022-04-27T09:04:25Z</time>
      </trkpt>
      <trkpt lat="41.72255" lon="8.82035">
        <ele>6.87</ele>
        <time>2022-04-27T09:04:40Z</time>
      </trkpt>
      <trkpt lat="41.72262" lon="8.82061">
        <ele>6.39</ele>
        <time>2022-04-27T09:04:56Z</time>
      </trkpt>
      <trkpt lat="41.72266" lon="8.82074">
        <ele>6.39</ele>
        <time>2022-04-27T09:05:05Z</time>
      </trkpt>
      <trkpt lat="41.72276" lon="8.82105">
        <ele>6.87</ele>
        <time>2022-04-27T09:05:24Z</time>
      </trkpt>
      <trkpt lat="41.72285" lon="8.82136">
        <ele>6.87</ele>
        <time>2022-04-27T09:05:43Z</time>
      </trkpt>
      <trkpt lat="41.72293" lon="8.82158">
        <ele>6.87</ele>
        <time>2022-04-27T09:05:58Z</time>
      </trkpt>
      <trkpt lat="41.72306" lon="8.82182">
        <ele>7.35</ele>
        <time>2022-04-27T09:06:17Z</time>
      </trkpt>
      <trkpt lat="41.7232" lon="8.82207">
        <ele>6.39</ele>
        <time>2022-04-27T09:06:37Z</time>
      </trkpt>
      <trkpt lat="41.72328" lon="8.82221">
        <ele>7.83</ele>
        <time>2022-04-27T09:06:49Z</time>
      </trkpt>
      <trkpt lat="41.72339" lon="8.8226">
        <ele>7.83</ele>
        <time>2022-04-27T09:07:11Z</time>
      </trkpt>
      <trkpt lat="41.72358" lon="8.82293">
        <ele>6.87</ele>
        <time>2022-04-27T09:07:33Z</time>
      </trkpt>
      <trkpt lat="41.72383" lon="8.8232">
        <ele>7.83</ele>
        <time>2022-04-27T09:07:55Z</time>
      </trkpt>
      <trkpt lat="41.72409" lon="8.82348">
        <ele>7.35</ele>
        <time>2022-04-27T09:08:20Z</time>
      </trkpt>
      <trkpt lat="41.72424" lon="8.82372">
        <ele>8.79</ele>
        <time>2022-04-27T09:08:38Z</time>
      </trkpt>
      <trkpt lat="41.72428" lon="8.82379">
        <ele>5.91</ele>
        <time>2022-04-27T09:08:43Z</time>
      </trkpt>
      <trkpt lat="41.72441" lon="8.82412">
        <ele>6.87</ele>
        <time>2022-04-27T09:09:03Z</time>
      </trkpt>
      <trkpt lat="41.72447" lon="8.82433">
        <ele>6.87</ele>
        <time>2022-04-27T09:09:16Z</time>
      </trkpt>
      <trkpt lat="41.72457" lon="8.82466">
        <ele>6.39</ele>
        <time>2022-04-27T09:09:35Z</time>
      </trkpt>
      <trkpt lat="41.72467" lon="8.82493">
        <ele>6.87</ele>
        <time>2022-04-27T09:09:51Z</time>
      </trkpt>
      <trkpt lat="41.72469" lon="8.825">
        <ele>6.87</ele>
        <time>2022-04-27T09:09:55Z</time>
      </trkpt>
      <trkpt lat="41.72472" lon="8.82511">
        <ele>7.35</ele>
        <time>2022-04-27T09:10:02Z</time>
      </trkpt>
      <trkpt lat="41.72473" lon="8.82514">
        <ele>7.35</ele>
        <time>2022-04-27T09:10:12Z</time>
      </trkpt>
      <trkpt lat="41.72472" lon="8.82514">
        <ele>7.35</ele>
        <time>2022-04-27T09:10:14Z</time>
      </trkpt>
      <trkpt lat="41.72471" lon="8.82525">
        <ele>6.87</ele>
        <time>2022-04-27T09:10:21Z</time>
      </trkpt>
      <trkpt lat="41.7249" lon="8.82556">
        <ele>7.83</ele>
        <time>2022-04-27T09:10:43Z</time>
      </trkpt>
      <trkpt lat="41.72511" lon="8.82568">
        <ele>6.87</ele>
        <time>2022-04-27T09:11:00Z</time>
      </trkpt>
      <trkpt lat="41.72529" lon="8.82588">
        <ele>6.87</ele>
        <time>2022-04-27T09:11:17Z</time>
      </trkpt>
      <trkpt lat="41.72545" lon="8.82605">
        <ele>6.87</ele>
        <time>2022-04-27T09:11:33Z</time>
      </trkpt>
      <trkpt lat="41.7257" lon="8.82633">
        <ele>7.35</ele>
        <time>2022-04-27T09:11:55Z</time>
      </trkpt>
      <trkpt lat="41.72594" lon="8.8266">
        <ele>7.35</ele>
        <time>2022-04-27T09:12:15Z</time>
      </trkpt>
      <trkpt lat="41.72617" lon="8.82686">
        <ele>7.35</ele>
        <time>2022-04-27T09:12:35Z</time>
      </trkpt>
      <trkpt lat="41.72636" lon="8.82713">
        <ele>7.83</ele>
        <time>2022-04-27T09:12:55Z</time>
      </trkpt>
      <trkpt lat="41.72652" lon="8.82741">
        <ele>7.83</ele>
        <time>2022-04-27T09:13:14Z</time>
      </trkpt>
      <trkpt lat="41.72655" lon="8.82745">
        <ele>7.83</ele>
        <time>2022-04-27T09:13:17Z</time>
      </trkpt>
      <trkpt lat="41.72658" lon="8.82759">
        <ele>7.83</ele>
        <time>2022-04-27T09:13:24Z</time>
      </trkpt>
      <trkpt lat="41.72663" lon="8.82769">
        <ele>7.35</ele>
        <time>2022-04-27T09:13:31Z</time>
      </trkpt>
      <trkpt lat="41.7267" lon="8.8278">
        <ele>8.31</ele>
        <time>2022-04-27T09:13:46Z</time>
      </trkpt>
      <trkpt lat="41.72669" lon="8.8278">
        <ele>7.83</ele>
        <time>2022-04-27T09:13:58Z</time>
      </trkpt>
      <trkpt lat="41.72694" lon="8.82804">
        <ele>7.83</ele>
        <time>2022-04-27T09:14:19Z</time>
      </trkpt>
      <trkpt lat="41.72694" lon="8.82809">
        <ele>7.35</ele>
        <time>2022-04-27T09:14:22Z</time>
      </trkpt>
      <trkpt lat="41.72693" lon="8.82814">
        <ele>7.35</ele>
        <time>2022-04-27T09:14:25Z</time>
      </trkpt>
      <trkpt lat="41.72674" lon="8.82836">
        <ele>6.87</ele>
        <time>2022-04-27T09:14:43Z</time>
      </trkpt>
      <trkpt lat="41.72657" lon="8.82854">
        <ele>7.83</ele>
        <time>2022-04-27T09:15:01Z</time>
      </trkpt>
      <trkpt lat="41.72638" lon="8.82877">
        <ele>7.83</ele>
        <time>2022-04-27T09:15:19Z</time>
      </trkpt>
      <trkpt lat="41.72637" lon="8.82878">
        <ele>7.83</ele>
        <time>2022-04-27T09:15:20Z</time>
      </trkpt>
      <trkpt lat="41.72624" lon="8.82889">
        <ele>7.35</ele>
        <time>2022-04-27T09:15:36Z</time>
      </trkpt>
      <trkpt lat="41.72606" lon="8.82911">
        <ele>6.39</ele>
        <time>2022-04-27T09:15:54Z</time>
      </trkpt>
      <trkpt lat="41.72588" lon="8.82933">
        <ele>6.87</ele>
        <time>2022-04-27T09:16:11Z</time>
      </trkpt>
      <trkpt lat="41.72567" lon="8.82968">
        <ele>6.39</ele>
        <time>2022-04-27T09:16:35Z</time>
      </trkpt>
      <trkpt lat="41.72546" lon="8.83014">
        <ele>5.91</ele>
        <time>2022-04-27T09:17:02Z</time>
      </trkpt>
      <trkpt lat="41.72529" lon="8.83055">
        <ele>5.91</ele>
        <time>2022-04-27T09:17:27Z</time>
      </trkpt>
      <trkpt lat="41.72521" lon="8.8307">
        <ele>5.42</ele>
        <time>2022-04-27T09:17:45Z</time>
      </trkpt>
      <trkpt lat="41.7252" lon="8.83074">
        <ele>5.42</ele>
        <time>2022-04-27T09:17:55Z</time>
      </trkpt>
      <trkpt lat="41.72503" lon="8.83101">
        <ele>5.91</ele>
        <time>2022-04-27T09:18:14Z</time>
      </trkpt>
      <trkpt lat="41.72498" lon="8.83113">
        <ele>4.94</ele>
        <time>2022-04-27T09:18:23Z</time>
      </trkpt>
      <trkpt lat="41.72494" lon="8.83138">
        <ele>4.94</ele>
        <time>2022-04-27T09:18:39Z</time>
      </trkpt>
      <trkpt lat="41.7248" lon="8.83166">
        <ele>5.42</ele>
        <time>2022-04-27T09:18:57Z</time>
      </trkpt>
      <trkpt lat="41.72467" lon="8.83198">
        <ele>5.91</ele>
        <time>2022-04-27T09:19:18Z</time>
      </trkpt>
      <trkpt lat="41.72465" lon="8.83201">
        <ele>5.91</ele>
        <time>2022-04-27T09:19:20Z</time>
      </trkpt>
      <trkpt lat="41.72455" lon="8.83223">
        <ele>5.91</ele>
        <time>2022-04-27T09:19:35Z</time>
      </trkpt>
      <trkpt lat="41.7245" lon="8.83243">
        <ele>4.94</ele>
        <time>2022-04-27T09:19:53Z</time>
      </trkpt>
      <trkpt lat="41.72447" lon="8.83245">
        <ele>4.94</ele>
        <time>2022-04-27T09:20:04Z</time>
      </trkpt>
      <trkpt lat="41.72443" lon="8.83254">
        <ele>5.42</ele>
        <time>2022-04-27T09:20:10Z</time>
      </trkpt>
      <trkpt lat="41.72438" lon="8.83268">
        <ele>6.39</ele>
        <time>2022-04-27T09:20:27Z</time>
      </trkpt>
      <trkpt lat="41.72432" lon="8.8328">
        <ele>5.42</ele>
        <time>2022-04-27T09:20:48Z</time>
      </trkpt>
      <trkpt lat="41.72416" lon="8.83311">
        <ele>5.42</ele>
        <time>2022-04-27T09:21:06Z</time>
      </trkpt>
      <trkpt lat="41.724" lon="8.83344">
        <ele>5.42</ele>
        <time>2022-04-27T09:21:25Z</time>
      </trkpt>
      <trkpt lat="41.72383" lon="8.83375">
        <ele>4.94</ele>
        <time>2022-04-27T09:21:45Z</time>
      </trkpt>
      <trkpt lat="41.72364" lon="8.83411">
        <ele>4.94</ele>
        <time>2022-04-27T09:22:08Z</time>
      </trkpt>
      <trkpt lat="41.72348" lon="8.83441">
        <ele>5.42</ele>
        <time>2022-04-27T09:22:29Z</time>
      </trkpt>
      <trkpt lat="41.72331" lon="8.83474">
        <ele>4.94</ele>
        <time>2022-04-27T09:22:52Z</time>
      </trkpt>
      <trkpt lat="41.72314" lon="8.83504">
        <ele>4.94</ele>
        <time>2022-04-27T09:23:13Z</time>
      </trkpt>
      <trkpt lat="41.72296" lon="8.8354">
        <ele>4.94</ele>
        <time>2022-04-27T09:23:37Z</time>
      </trkpt>
      <trkpt lat="41.72281" lon="8.83567">
        <ele>4.94</ele>
        <time>2022-04-27T09:23:55Z</time>
      </trkpt>
      <trkpt lat="41.72264" lon="8.836">
        <ele>5.42</ele>
        <time>2022-04-27T09:24:16Z</time>
      </trkpt>
      <trkpt lat="41.72247" lon="8.83628">
        <ele>5.42</ele>
        <time>2022-04-27T09:24:37Z</time>
      </trkpt>
      <trkpt lat="41.7223" lon="8.83659">
        <ele>5.42</ele>
        <time>2022-04-27T09:24:59Z</time>
      </trkpt>
      <trkpt lat="41.72213" lon="8.83688">
        <ele>5.42</ele>
        <time>2022-04-27T09:25:19Z</time>
      </trkpt>
      <trkpt lat="41.72196" lon="8.83716">
        <ele>4.94</ele>
        <time>2022-04-27T09:25:40Z</time>
      </trkpt>
      <trkpt lat="41.72179" lon="8.83743">
        <ele>4.46</ele>
        <time>2022-04-27T09:26:00Z</time>
      </trkpt>
      <trkpt lat="41.72164" lon="8.8377">
        <ele>4.94</ele>
        <time>2022-04-27T09:26:19Z</time>
      </trkpt>
      <trkpt lat="41.72148" lon="8.83798">
        <ele>4.94</ele>
        <time>2022-04-27T09:26:39Z</time>
      </trkpt>
      <trkpt lat="41.72146" lon="8.83801">
        <ele>4.94</ele>
        <time>2022-04-27T09:26:41Z</time>
      </trkpt>
      <trkpt lat="41.72125" lon="8.83829">
        <ele>3.98</ele>
        <time>2022-04-27T09:27:04Z</time>
      </trkpt>
      <trkpt lat="41.72102" lon="8.83823">
        <ele>4.94</ele>
        <time>2022-04-27T09:27:23Z</time>
      </trkpt>
      <trkpt lat="41.72096" lon="8.83818">
        <ele>3.98</ele>
        <time>2022-04-27T09:27:28Z</time>
      </trkpt>
      <trkpt lat="41.72069" lon="8.83795">
        <ele>4.46</ele>
        <time>2022-04-27T09:27:52Z</time>
      </trkpt>
      <trkpt lat="41.72044" lon="8.83775">
        <ele>3.98</ele>
        <time>2022-04-27T09:28:14Z</time>
      </trkpt>
      <trkpt lat="41.72019" lon="8.83754">
        <ele>3.5</ele>
        <time>2022-04-27T09:28:36Z</time>
      </trkpt>
      <trkpt lat="41.72" lon="8.8374">
        <ele>3.5</ele>
        <time>2022-04-27T09:28:53Z</time>
      </trkpt>
      <trkpt lat="41.71993" lon="8.83735">
        <ele>1.58</ele>
        <time>2022-04-27T09:28:59Z</time>
      </trkpt>
      <trkpt lat="41.71991" lon="8.83733">
        <ele>3.5</ele>
        <time>2022-04-27T09:29:01Z</time>
      </trkpt>
      <trkpt lat="41.71968" lon="8.83713">
        <ele>3.5</ele>
        <time>2022-04-27T09:29:21Z</time>
      </trkpt>
      <trkpt lat="41.71942" lon="8.83693">
        <ele>3.5</ele>
        <time>2022-04-27T09:29:43Z</time>
      </trkpt>
      <trkpt lat="41.71912" lon="8.83678">
        <ele>2.54</ele>
        <time>2022-04-27T09:30:06Z</time>
      </trkpt>
      <trkpt lat="41.71885" lon="8.83675">
        <ele>3.5</ele>
        <time>2022-04-27T09:30:26Z</time>
      </trkpt>
      <trkpt lat="41.71858" lon="8.83678">
        <ele>3.02</ele>
        <time>2022-04-27T09:30:46Z</time>
      </trkpt>
      <trkpt lat="41.71833" lon="8.83685">
        <ele>3.98</ele>
        <time>2022-04-27T09:31:07Z</time>
      </trkpt>
      <trkpt lat="41.71808" lon="8.83688">
        <ele>3.02</ele>
        <time>2022-04-27T09:31:25Z</time>
      </trkpt>
      <trkpt lat="41.7178" lon="8.83687">
        <ele>3.5</ele>
        <time>2022-04-27T09:31:46Z</time>
      </trkpt>
      <trkpt lat="41.71752" lon="8.83681">
        <ele>3.98</ele>
        <time>2022-04-27T09:32:07Z</time>
      </trkpt>
      <trkpt lat="41.71726" lon="8.83667">
        <ele>3.98</ele>
        <time>2022-04-27T09:32:28Z</time>
      </trkpt>
      <trkpt lat="41.71702" lon="8.83668">
        <ele>3.98</ele>
        <time>2022-04-27T09:32:47Z</time>
      </trkpt>
      <trkpt lat="41.71681" lon="8.83689">
        <ele>3.98</ele>
        <time>2022-04-27T09:33:07Z</time>
      </trkpt>
      <trkpt lat="41.71657" lon="8.8371">
        <ele>3.98</ele>
        <time>2022-04-27T09:33:29Z</time>
      </trkpt>
      <trkpt lat="41.71641" lon="8.83725">
        <ele>3.5</ele>
        <time>2022-04-27T09:33:48Z</time>
      </trkpt>
      <trkpt lat="41.71628" lon="8.83736">
        <ele>3.5</ele>
        <time>2022-04-27T09:34:04Z</time>
      </trkpt>
      <trkpt lat="41.71618" lon="8.83747">
        <ele>3.98</ele>
        <time>2022-04-27T09:34:20Z</time>
      </trkpt>
      <trkpt lat="41.71599" lon="8.8377">
        <ele>3.98</ele>
        <time>2022-04-27T09:34:40Z</time>
      </trkpt>
      <trkpt lat="41.71581" lon="8.83794">
        <ele>4.46</ele>
        <time>2022-04-27T09:35:00Z</time>
      </trkpt>
      <trkpt lat="41.71568" lon="8.83813">
        <ele>4.46</ele>
        <time>2022-04-27T09:35:15Z</time>
      </trkpt>
      <trkpt lat="41.71555" lon="8.83832">
        <ele>4.94</ele>
        <time>2022-04-27T09:35:31Z</time>
      </trkpt>
      <trkpt lat="41.71544" lon="8.83845">
        <ele>5.42</ele>
        <time>2022-04-27T09:35:44Z</time>
      </trkpt>
      <trkpt lat="41.71542" lon="8.83846">
        <ele>4.94</ele>
        <time>2022-04-27T09:35:46Z</time>
      </trkpt>
      <trkpt lat="41.71532" lon="8.8386">
        <ele>5.42</ele>
        <time>2022-04-27T09:35:59Z</time>
      </trkpt>
      <trkpt lat="41.7153" lon="8.83864">
        <ele>5.42</ele>
        <time>2022-04-27T09:36:02Z</time>
      </trkpt>
      <trkpt lat="41.71514" lon="8.83887">
        <ele>5.91</ele>
        <time>2022-04-27T09:36:21Z</time>
      </trkpt>
      <trkpt lat="41.71499" lon="8.83905">
        <ele>5.91</ele>
        <time>2022-04-27T09:36:38Z</time>
      </trkpt>
      <trkpt lat="41.71486" lon="8.83925">
        <ele>6.39</ele>
        <time>2022-04-27T09:36:55Z</time>
      </trkpt>
      <trkpt lat="41.71467" lon="8.83948">
        <ele>6.39</ele>
        <time>2022-04-27T09:37:15Z</time>
      </trkpt>
      <trkpt lat="41.71447" lon="8.8397">
        <ele>7.35</ele>
        <time>2022-04-27T09:37:36Z</time>
      </trkpt>
      <trkpt lat="41.71424" lon="8.8399">
        <ele>7.83</ele>
        <time>2022-04-27T09:37:57Z</time>
      </trkpt>
      <trkpt lat="41.71419" lon="8.84">
        <ele>8.31</ele>
        <time>2022-04-27T09:38:06Z</time>
      </trkpt>
      <trkpt lat="41.71403" lon="8.84027">
        <ele>9.27</ele>
        <time>2022-04-27T09:38:25Z</time>
      </trkpt>
      <trkpt lat="41.71401" lon="8.8403">
        <ele>10.23</ele>
        <time>2022-04-27T09:38:28Z</time>
      </trkpt>
      <trkpt lat="41.71387" lon="8.84039">
        <ele>10.23</ele>
        <time>2022-04-27T09:38:46Z</time>
      </trkpt>
      <trkpt lat="41.71387" lon="8.84041">
        <ele>10.23</ele>
        <time>2022-04-27T09:39:09Z</time>
      </trkpt>
      <trkpt lat="41.71376" lon="8.84039">
        <ele>12.15</ele>
        <time>2022-04-27T09:39:30Z</time>
      </trkpt>
      <trkpt lat="41.71362" lon="8.84044">
        <ele>15.04</ele>
        <time>2022-04-27T09:39:47Z</time>
      </trkpt>
      <trkpt lat="41.71352" lon="8.84042">
        <ele>18.4</ele>
        <time>2022-04-27T09:40:02Z</time>
      </trkpt>
      <trkpt lat="41.71345" lon="8.84038">
        <ele>21.77</ele>
        <time>2022-04-27T09:40:18Z</time>
      </trkpt>
      <trkpt lat="41.71337" lon="8.84027">
        <ele>25.13</ele>
        <time>2022-04-27T09:40:36Z</time>
      </trkpt>
      <trkpt lat="41.71332" lon="8.84017">
        <ele>28.5</ele>
        <time>2022-04-27T09:40:51Z</time>
      </trkpt>
      <trkpt lat="41.71326" lon="8.84008">
        <ele>31.86</ele>
        <time>2022-04-27T09:41:05Z</time>
      </trkpt>
      <trkpt lat="41.71316" lon="8.84001">
        <ele>34.74</ele>
        <time>2022-04-27T09:41:22Z</time>
      </trkpt>
      <trkpt lat="41.71307" lon="8.83996">
        <ele>37.63</ele>
        <time>2022-04-27T09:41:37Z</time>
      </trkpt>
      <trkpt lat="41.71301" lon="8.83993">
        <ele>40.99</ele>
        <time>2022-04-27T09:41:50Z</time>
      </trkpt>
      <trkpt lat="41.71292" lon="8.8399">
        <ele>44.36</ele>
        <time>2022-04-27T09:42:06Z</time>
      </trkpt>
      <trkpt lat="41.71277" lon="8.83984">
        <ele>47.72</ele>
        <time>2022-04-27T09:42:27Z</time>
      </trkpt>
      <trkpt lat="41.71262" lon="8.83979">
        <ele>49.16</ele>
        <time>2022-04-27T09:42:45Z</time>
      </trkpt>
      <trkpt lat="41.71251" lon="8.8398">
        <ele>52.53</ele>
        <time>2022-04-27T09:43:01Z</time>
      </trkpt>
      <trkpt lat="41.71237" lon="8.83986">
        <ele>54.93</ele>
        <time>2022-04-27T09:43:19Z</time>
      </trkpt>
      <trkpt lat="41.71224" lon="8.83997">
        <ele>57.34</ele>
        <time>2022-04-27T09:43:36Z</time>
      </trkpt>
      <trkpt lat="41.71212" lon="8.84007">
        <ele>60.22</ele>
        <time>2022-04-27T09:43:54Z</time>
      </trkpt>
      <trkpt lat="41.71205" lon="8.84015">
        <ele>63.58</ele>
        <time>2022-04-27T09:44:08Z</time>
      </trkpt>
      <trkpt lat="41.7119" lon="8.84024">
        <ele>65.03</ele>
        <time>2022-04-27T09:44:25Z</time>
      </trkpt>
      <trkpt lat="41.71184" lon="8.84029">
        <ele>65.99</ele>
        <time>2022-04-27T09:44:33Z</time>
      </trkpt>
      <trkpt lat="41.71168" lon="8.84042">
        <ele>69.35</ele>
        <time>2022-04-27T09:44:54Z</time>
      </trkpt>
      <trkpt lat="41.71159" lon="8.84052">
        <ele>70.31</ele>
        <time>2022-04-27T09:45:11Z</time>
      </trkpt>
      <trkpt lat="41.71146" lon="8.84065">
        <ele>71.76</ele>
        <time>2022-04-27T09:45:30Z</time>
      </trkpt>
      <trkpt lat="41.71131" lon="8.84083">
        <ele>73.2</ele>
        <time>2022-04-27T09:45:47Z</time>
      </trkpt>
      <trkpt lat="41.71116" lon="8.84108">
        <ele>75.12</ele>
        <time>2022-04-27T09:46:04Z</time>
      </trkpt>
      <trkpt lat="41.71111" lon="8.84117">
        <ele>76.56</ele>
        <time>2022-04-27T09:46:20Z</time>
      </trkpt>
      <trkpt lat="41.71112" lon="8.84118">
        <ele>76.08</ele>
        <time>2022-04-27T09:46:35Z</time>
      </trkpt>
      <trkpt lat="41.71113" lon="8.8412">
        <ele>76.08</ele>
        <time>2022-04-27T09:47:07Z</time>
      </trkpt>
      <trkpt lat="41.71112" lon="8.84121">
        <ele>76.56</ele>
        <time>2022-04-27T09:47:24Z</time>
      </trkpt>
      <trkpt lat="41.71103" lon="8.84124">
        <ele>77.04</ele>
        <time>2022-04-27T09:47:41Z</time>
      </trkpt>
      <trkpt lat="41.71095" lon="8.84137">
        <ele>79.93</ele>
        <time>2022-04-27T09:47:59Z</time>
      </trkpt>
      <trkpt lat="41.71088" lon="8.8415">
        <ele>82.33</ele>
        <time>2022-04-27T09:48:16Z</time>
      </trkpt>
      <trkpt lat="41.7108" lon="8.84154">
        <ele>85.21</ele>
        <time>2022-04-27T09:48:31Z</time>
      </trkpt>
      <trkpt lat="41.71069" lon="8.84158">
        <ele>88.1</ele>
        <time>2022-04-27T09:48:51Z</time>
      </trkpt>
      <trkpt lat="41.71061" lon="8.84166">
        <ele>90.5</ele>
        <time>2022-04-27T09:49:05Z</time>
      </trkpt>
      <trkpt lat="41.71047" lon="8.84172">
        <ele>91.94</ele>
        <time>2022-04-27T09:49:22Z</time>
      </trkpt>
      <trkpt lat="41.71028" lon="8.84185">
        <ele>94.83</ele>
        <time>2022-04-27T09:49:40Z</time>
      </trkpt>
      <trkpt lat="41.71019" lon="8.84191">
        <ele>95.79</ele>
        <time>2022-04-27T09:49:57Z</time>
      </trkpt>
      <trkpt lat="41.71016" lon="8.8419">
        <ele>95.79</ele>
        <time>2022-04-27T09:50:16Z</time>
      </trkpt>
      <trkpt lat="41.7102" lon="8.84188">
        <ele>95.79</ele>
        <time>2022-04-27T09:50:33Z</time>
      </trkpt>
      <trkpt lat="41.71019" lon="8.84192">
        <ele>96.27</ele>
        <time>2022-04-27T09:50:52Z</time>
      </trkpt>
      <trkpt lat="41.7102" lon="8.84191">
        <ele>96.27</ele>
        <time>2022-04-27T09:51:12Z</time>
      </trkpt>
      <trkpt lat="41.71019" lon="8.8419">
        <ele>95.31</ele>
        <time>2022-04-27T09:51:40Z</time>
      </trkpt>
      <trkpt lat="41.71021" lon="8.8419">
        <ele>95.79</ele>
        <time>2022-04-27T09:52:02Z</time>
      </trkpt>
      <trkpt lat="41.7102" lon="8.8419">
        <ele>96.27</ele>
        <time>2022-04-27T09:52:25Z</time>
      </trkpt>
      <trkpt lat="41.7101" lon="8.84194">
        <ele>96.27</ele>
        <time>2022-04-27T09:52:46Z</time>
      </trkpt>
      <trkpt lat="41.70992" lon="8.84205">
        <ele>94.83</ele>
        <time>2022-04-27T09:53:07Z</time>
      </trkpt>
      <trkpt lat="41.70979" lon="8.84219">
        <ele>94.35</ele>
        <time>2022-04-27T09:53:24Z</time>
      </trkpt>
      <trkpt lat="41.70975" lon="8.84235">
        <ele>93.39</ele>
        <time>2022-04-27T09:53:34Z</time>
      </trkpt>
      <trkpt lat="41.70967" lon="8.84257">
        <ele>92.9</ele>
        <time>2022-04-27T09:53:50Z</time>
      </trkpt>
      <trkpt lat="41.70964" lon="8.84272">
        <ele>91.94</ele>
        <time>2022-04-27T09:54:08Z</time>
      </trkpt>
      <trkpt lat="41.70963" lon="8.84277">
        <ele>91.94</ele>
        <time>2022-04-27T09:54:28Z</time>
      </trkpt>
      <trkpt lat="41.70959" lon="8.84287">
        <ele>92.42</ele>
        <time>2022-04-27T09:54:51Z</time>
      </trkpt>
      <trkpt lat="41.7096" lon="8.843">
        <ele>92.42</ele>
        <time>2022-04-27T09:55:08Z</time>
      </trkpt>
      <trkpt lat="41.70956" lon="8.84305">
        <ele>92.9</ele>
        <time>2022-04-27T09:55:32Z</time>
      </trkpt>
      <trkpt lat="41.70953" lon="8.84313">
        <ele>92.9</ele>
        <time>2022-04-27T09:55:45Z</time>
      </trkpt>
      <trkpt lat="41.70949" lon="8.84326">
        <ele>92.9</ele>
        <time>2022-04-27T09:56:01Z</time>
      </trkpt>
      <trkpt lat="41.70938" lon="8.84338">
        <ele>92.9</ele>
        <time>2022-04-27T09:56:22Z</time>
      </trkpt>
      <trkpt lat="41.70933" lon="8.8435">
        <ele>93.39</ele>
        <time>2022-04-27T09:56:35Z</time>
      </trkpt>
      <trkpt lat="41.70941" lon="8.84371">
        <ele>93.87</ele>
        <time>2022-04-27T09:56:54Z</time>
      </trkpt>
      <trkpt lat="41.70951" lon="8.8439">
        <ele>95.31</ele>
        <time>2022-04-27T09:57:10Z</time>
      </trkpt>
      <trkpt lat="41.70957" lon="8.84413">
        <ele>96.27</ele>
        <time>2022-04-27T09:57:29Z</time>
      </trkpt>
      <trkpt lat="41.70963" lon="8.84427">
        <ele>97.71</ele>
        <time>2022-04-27T09:57:44Z</time>
      </trkpt>
      <trkpt lat="41.7096" lon="8.8444">
        <ele>98.19</ele>
        <time>2022-04-27T09:58:10Z</time>
      </trkpt>
      <trkpt lat="41.70955" lon="8.84465">
        <ele>98.67</ele>
        <time>2022-04-27T09:58:31Z</time>
      </trkpt>
      <trkpt lat="41.70951" lon="8.84476">
        <ele>99.15</ele>
        <time>2022-04-27T09:58:40Z</time>
      </trkpt>
      <trkpt lat="41.70936" lon="8.84491">
        <ele>99.15</ele>
        <time>2022-04-27T09:58:59Z</time>
      </trkpt>
      <trkpt lat="41.70921" lon="8.84508">
        <ele>99.63</ele>
        <time>2022-04-27T09:59:17Z</time>
      </trkpt>
      <trkpt lat="41.70906" lon="8.84521">
        <ele>101.08</ele>
        <time>2022-04-27T09:59:32Z</time>
      </trkpt>
      <trkpt lat="41.70896" lon="8.84529">
        <ele>101.56</ele>
        <time>2022-04-27T09:59:51Z</time>
      </trkpt>
      <trkpt lat="41.70886" lon="8.8453">
        <ele>102.52</ele>
        <time>2022-04-27T10:00:15Z</time>
      </trkpt>
      <trkpt lat="41.70879" lon="8.84538">
        <ele>103.48</ele>
        <time>2022-04-27T10:00:36Z</time>
      </trkpt>
      <trkpt lat="41.70878" lon="8.84543">
        <ele>104.44</ele>
        <time>2022-04-27T10:00:43Z</time>
      </trkpt>
      <trkpt lat="41.7087" lon="8.84556">
        <ele>104.92</ele>
        <time>2022-04-27T10:01:00Z</time>
      </trkpt>
      <trkpt lat="41.70868" lon="8.84559">
        <ele>104.92</ele>
        <time>2022-04-27T10:01:18Z</time>
      </trkpt>
      <trkpt lat="41.70864" lon="8.84551">
        <ele>105.4</ele>
        <time>2022-04-27T10:01:41Z</time>
      </trkpt>
      <trkpt lat="41.70864" lon="8.84549">
        <ele>105.88</ele>
        <time>2022-04-27T10:02:00Z</time>
      </trkpt>
      <trkpt lat="41.70859" lon="8.84552">
        <ele>105.88</ele>
        <time>2022-04-27T10:02:30Z</time>
      </trkpt>
      <trkpt lat="41.70859" lon="8.84556">
        <ele>105.4</ele>
        <time>2022-04-27T10:03:02Z</time>
      </trkpt>
      <trkpt lat="41.7086" lon="8.84551">
        <ele>105.4</ele>
        <time>2022-04-27T10:03:26Z</time>
      </trkpt>
      <trkpt lat="41.70857" lon="8.84554">
        <ele>106.36</ele>
        <time>2022-04-27T10:03:53Z</time>
      </trkpt>
      <trkpt lat="41.70842" lon="8.84572">
        <ele>107.81</ele>
        <time>2022-04-27T10:04:12Z</time>
      </trkpt>
      <trkpt lat="41.70837" lon="8.84591">
        <ele>109.25</ele>
        <time>2022-04-27T10:04:30Z</time>
      </trkpt>
      <trkpt lat="41.70836" lon="8.84599">
        <ele>110.69</ele>
        <time>2022-04-27T10:04:45Z</time>
      </trkpt>
      <trkpt lat="41.70831" lon="8.84608">
        <ele>112.13</ele>
        <time>2022-04-27T10:05:04Z</time>
      </trkpt>
      <trkpt lat="41.70822" lon="8.84621">
        <ele>114.53</ele>
        <time>2022-04-27T10:05:23Z</time>
      </trkpt>
      <trkpt lat="41.70811" lon="8.84631">
        <ele>116.94</ele>
        <time>2022-04-27T10:05:42Z</time>
      </trkpt>
      <trkpt lat="41.70805" lon="8.84648">
        <ele>119.34</ele>
        <time>2022-04-27T10:06:00Z</time>
      </trkpt>
      <trkpt lat="41.70802" lon="8.84666">
        <ele>120.78</ele>
        <time>2022-04-27T10:06:18Z</time>
      </trkpt>
      <trkpt lat="41.70802" lon="8.84683">
        <ele>123.19</ele>
        <time>2022-04-27T10:06:32Z</time>
      </trkpt>
      <trkpt lat="41.70806" lon="8.84699">
        <ele>124.15</ele>
        <time>2022-04-27T10:06:45Z</time>
      </trkpt>
      <trkpt lat="41.70808" lon="8.84713">
        <ele>125.59</ele>
        <time>2022-04-27T10:06:58Z</time>
      </trkpt>
      <trkpt lat="41.70812" lon="8.84733">
        <ele>126.55</ele>
        <time>2022-04-27T10:07:14Z</time>
      </trkpt>
      <trkpt lat="41.70812" lon="8.84748">
        <ele>127.51</ele>
        <time>2022-04-27T10:07:28Z</time>
      </trkpt>
      <trkpt lat="41.7081" lon="8.84769">
        <ele>128.95</ele>
        <time>2022-04-27T10:07:45Z</time>
      </trkpt>
      <trkpt lat="41.70812" lon="8.84787">
        <ele>129.92</ele>
        <time>2022-04-27T10:08:00Z</time>
      </trkpt>
      <trkpt lat="41.70811" lon="8.84805">
        <ele>131.84</ele>
        <time>2022-04-27T10:08:15Z</time>
      </trkpt>
      <trkpt lat="41.70812" lon="8.84822">
        <ele>133.76</ele>
        <time>2022-04-27T10:08:31Z</time>
      </trkpt>
      <trkpt lat="41.70812" lon="8.84839">
        <ele>135.68</ele>
        <time>2022-04-27T10:08:48Z</time>
      </trkpt>
      <trkpt lat="41.70811" lon="8.84855">
        <ele>137.13</ele>
        <time>2022-04-27T10:09:05Z</time>
      </trkpt>
      <trkpt lat="41.7081" lon="8.84874">
        <ele>138.09</ele>
        <time>2022-04-27T10:09:21Z</time>
      </trkpt>
      <trkpt lat="41.7081" lon="8.84902">
        <ele>139.53</ele>
        <time>2022-04-27T10:09:39Z</time>
      </trkpt>
      <trkpt lat="41.70813" lon="8.84925">
        <ele>141.45</ele>
        <time>2022-04-27T10:09:58Z</time>
      </trkpt>
      <trkpt lat="41.70809" lon="8.84932">
        <ele>142.41</ele>
        <time>2022-04-27T10:10:09Z</time>
      </trkpt>
      <trkpt lat="41.70811" lon="8.84935">
        <ele>141.93</ele>
        <time>2022-04-27T10:10:30Z</time>
      </trkpt>
      <trkpt lat="41.70813" lon="8.84935">
        <ele>140.97</ele>
        <time>2022-04-27T10:10:59Z</time>
      </trkpt>
      <trkpt lat="41.70813" lon="8.84932">
        <ele>141.45</ele>
        <time>2022-04-27T10:11:28Z</time>
      </trkpt>
      <trkpt lat="41.7081" lon="8.84933">
        <ele>140.97</ele>
        <time>2022-04-27T10:12:01Z</time>
      </trkpt>
      <trkpt lat="41.70807" lon="8.84936">
        <ele>140.97</ele>
        <time>2022-04-27T10:12:31Z</time>
      </trkpt>
      <trkpt lat="41.70807" lon="8.84939">
        <ele>140.97</ele>
        <time>2022-04-27T10:12:59Z</time>
      </trkpt>
      <trkpt lat="41.70805" lon="8.84938">
        <ele>141.45</ele>
        <time>2022-04-27T10:13:32Z</time>
      </trkpt>
      <trkpt lat="41.70798" lon="8.84943">
        <ele>142.41</ele>
        <time>2022-04-27T10:13:56Z</time>
      </trkpt>
      <trkpt lat="41.70791" lon="8.84945">
        <ele>141.45</ele>
        <time>2022-04-27T10:14:18Z</time>
      </trkpt>
      <trkpt lat="41.70783" lon="8.84946">
        <ele>141.93</ele>
        <time>2022-04-27T10:14:27Z</time>
      </trkpt>
      <trkpt lat="41.7077" lon="8.84962">
        <ele>141.93</ele>
        <time>2022-04-27T10:14:44Z</time>
      </trkpt>
      <trkpt lat="41.70763" lon="8.84981">
        <ele>141.93</ele>
        <time>2022-04-27T10:15:04Z</time>
      </trkpt>
      <trkpt lat="41.70758" lon="8.85">
        <ele>139.05</ele>
        <time>2022-04-27T10:15:19Z</time>
      </trkpt>
      <trkpt lat="41.70752" lon="8.85022">
        <ele>135.68</ele>
        <time>2022-04-27T10:15:40Z</time>
      </trkpt>
      <trkpt lat="41.70743" lon="8.85041">
        <ele>134.24</ele>
        <time>2022-04-27T10:15:58Z</time>
      </trkpt>
      <trkpt lat="41.70736" lon="8.85056">
        <ele>136.16</ele>
        <time>2022-04-27T10:16:16Z</time>
      </trkpt>
      <trkpt lat="41.70729" lon="8.85071">
        <ele>138.57</ele>
        <time>2022-04-27T10:16:35Z</time>
      </trkpt>
      <trkpt lat="41.7072" lon="8.85085">
        <ele>141.93</ele>
        <time>2022-04-27T10:16:54Z</time>
      </trkpt>
      <trkpt lat="41.70705" lon="8.85093">
        <ele>144.34</ele>
        <time>2022-04-27T10:17:14Z</time>
      </trkpt>
      <trkpt lat="41.70699" lon="8.85101">
        <ele>147.7</ele>
        <time>2022-04-27T10:17:29Z</time>
      </trkpt>
      <trkpt lat="41.7069" lon="8.8511">
        <ele>150.58</ele>
        <time>2022-04-27T10:17:47Z</time>
      </trkpt>
      <trkpt lat="41.70681" lon="8.85116">
        <ele>152.51</ele>
        <time>2022-04-27T10:18:03Z</time>
      </trkpt>
      <trkpt lat="41.70674" lon="8.85124">
        <ele>156.83</ele>
        <time>2022-04-27T10:18:21Z</time>
      </trkpt>
      <trkpt lat="41.7067" lon="8.85132">
        <ele>158.75</ele>
        <time>2022-04-27T10:18:35Z</time>
      </trkpt>
      <trkpt lat="41.70666" lon="8.85143">
        <ele>161.16</ele>
        <time>2022-04-27T10:18:52Z</time>
      </trkpt>
      <trkpt lat="41.70665" lon="8.85152">
        <ele>165.48</ele>
        <time>2022-04-27T10:19:04Z</time>
      </trkpt>
      <trkpt lat="41.70665" lon="8.85163">
        <ele>165.96</ele>
        <time>2022-04-27T10:19:19Z</time>
      </trkpt>
      <trkpt lat="41.70671" lon="8.85169">
        <ele>169.33</ele>
        <time>2022-04-27T10:19:33Z</time>
      </trkpt>
      <trkpt lat="41.70675" lon="8.85183">
        <ele>171.73</ele>
        <time>2022-04-27T10:19:55Z</time>
      </trkpt>
      <trkpt lat="41.70681" lon="8.85195">
        <ele>175.1</ele>
        <time>2022-04-27T10:20:18Z</time>
      </trkpt>
      <trkpt lat="41.70682" lon="8.85205">
        <ele>177.98</ele>
        <time>2022-04-27T10:20:32Z</time>
      </trkpt>
      <trkpt lat="41.70688" lon="8.85213">
        <ele>180.87</ele>
        <time>2022-04-27T10:20:49Z</time>
      </trkpt>
      <trkpt lat="41.70686" lon="8.85227">
        <ele>182.31</ele>
        <time>2022-04-27T10:21:06Z</time>
      </trkpt>
      <trkpt lat="41.7069" lon="8.85242">
        <ele>184.23</ele>
        <time>2022-04-27T10:21:23Z</time>
      </trkpt>
      <trkpt lat="41.70695" lon="8.85249">
        <ele>187.11</ele>
        <time>2022-04-27T10:21:39Z</time>
      </trkpt>
      <trkpt lat="41.70699" lon="8.85254">
        <ele>190</ele>
        <time>2022-04-27T10:21:54Z</time>
      </trkpt>
      <trkpt lat="41.70703" lon="8.8526">
        <ele>192.88</ele>
        <time>2022-04-27T10:22:09Z</time>
      </trkpt>
      <trkpt lat="41.70709" lon="8.85271">
        <ele>195.28</ele>
        <time>2022-04-27T10:22:26Z</time>
      </trkpt>
      <trkpt lat="41.70712" lon="8.85283">
        <ele>197.21</ele>
        <time>2022-04-27T10:22:41Z</time>
      </trkpt>
      <trkpt lat="41.70714" lon="8.85294">
        <ele>197.21</ele>
        <time>2022-04-27T10:22:56Z</time>
      </trkpt>
      <trkpt lat="41.70714" lon="8.85294">
        <ele>196.73</ele>
        <time>2022-04-27T10:23:15Z</time>
      </trkpt>
      <trkpt lat="41.70712" lon="8.85294">
        <ele>196.73</ele>
        <time>2022-04-27T10:23:44Z</time>
      </trkpt>
      <trkpt lat="41.70712" lon="8.85294">
        <ele>197.69</ele>
        <time>2022-04-27T10:24:02Z</time>
      </trkpt>
      <trkpt lat="41.70705" lon="8.85291">
        <ele>195.77</ele>
        <time>2022-04-27T10:24:24Z</time>
      </trkpt>
      <trkpt lat="41.70708" lon="8.85291">
        <ele>197.21</ele>
        <time>2022-04-27T10:24:39Z</time>
      </trkpt>
      <trkpt lat="41.70706" lon="8.8529">
        <ele>197.69</ele>
        <time>2022-04-27T10:24:55Z</time>
      </trkpt>
      <trkpt lat="41.7071" lon="8.85291">
        <ele>196.73</ele>
        <time>2022-04-27T10:25:28Z</time>
      </trkpt>
      <trkpt lat="41.70714" lon="8.85308">
        <ele>197.21</ele>
        <time>2022-04-27T10:25:42Z</time>
      </trkpt>
      <trkpt lat="41.70716" lon="8.85316">
        <ele>196.73</ele>
        <time>2022-04-27T10:25:49Z</time>
      </trkpt>
      <trkpt lat="41.7072" lon="8.8533">
        <ele>195.77</ele>
        <time>2022-04-27T10:26:07Z</time>
      </trkpt>
      <trkpt lat="41.70723" lon="8.8534">
        <ele>195.77</ele>
        <time>2022-04-27T10:26:36Z</time>
      </trkpt>
      <trkpt lat="41.70724" lon="8.8535">
        <ele>198.65</ele>
        <time>2022-04-27T10:26:51Z</time>
      </trkpt>
      <trkpt lat="41.70725" lon="8.85353">
        <ele>200.09</ele>
        <time>2022-04-27T10:27:07Z</time>
      </trkpt>
      <trkpt lat="41.70729" lon="8.85356">
        <ele>200.57</ele>
        <time>2022-04-27T10:27:36Z</time>
      </trkpt>
      <trkpt lat="41.70734" lon="8.85357">
        <ele>202.49</ele>
        <time>2022-04-27T10:27:56Z</time>
      </trkpt>
      <trkpt lat="41.70742" lon="8.85361">
        <ele>202.49</ele>
        <time>2022-04-27T10:28:14Z</time>
      </trkpt>
      <trkpt lat="41.70748" lon="8.85376">
        <ele>204.9</ele>
        <time>2022-04-27T10:28:28Z</time>
      </trkpt>
      <trkpt lat="41.70753" lon="8.85384">
        <ele>208.26</ele>
        <time>2022-04-27T10:28:48Z</time>
      </trkpt>
      <trkpt lat="41.70752" lon="8.85389">
        <ele>209.7</ele>
        <time>2022-04-27T10:29:05Z</time>
      </trkpt>
      <trkpt lat="41.70753" lon="8.85393">
        <ele>209.7</ele>
        <time>2022-04-27T10:29:20Z</time>
      </trkpt>
      <trkpt lat="41.70754" lon="8.85392">
        <ele>210.19</ele>
        <time>2022-04-27T10:29:38Z</time>
      </trkpt>
      <trkpt lat="41.70757" lon="8.854">
        <ele>211.15</ele>
        <time>2022-04-27T10:29:58Z</time>
      </trkpt>
      <trkpt lat="41.70758" lon="8.85409">
        <ele>213.07</ele>
        <time>2022-04-27T10:30:16Z</time>
      </trkpt>
      <trkpt lat="41.7076" lon="8.85412">
        <ele>213.55</ele>
        <time>2022-04-27T10:30:35Z</time>
      </trkpt>
      <trkpt lat="41.70763" lon="8.85417">
        <ele>216.91</ele>
        <time>2022-04-27T10:30:52Z</time>
      </trkpt>
      <trkpt lat="41.70762" lon="8.8542">
        <ele>216.43</ele>
        <time>2022-04-27T10:31:10Z</time>
      </trkpt>
      <trkpt lat="41.70762" lon="8.8542">
        <ele>216.43</ele>
        <time>2022-04-27T10:31:24Z</time>
      </trkpt>
      <trkpt lat="41.70766" lon="8.85422">
        <ele>218.84</ele>
        <time>2022-04-27T10:31:43Z</time>
      </trkpt>
      <trkpt lat="41.70774" lon="8.85431">
        <ele>219.8</ele>
        <time>2022-04-27T10:31:57Z</time>
      </trkpt>
      <trkpt lat="41.70787" lon="8.85436">
        <ele>221.72</ele>
        <time>2022-04-27T10:32:17Z</time>
      </trkpt>
      <trkpt lat="41.70804" lon="8.85444">
        <ele>224.61</ele>
        <time>2022-04-27T10:32:36Z</time>
      </trkpt>
      <trkpt lat="41.70818" lon="8.85453">
        <ele>223.64</ele>
        <time>2022-04-27T10:32:53Z</time>
      </trkpt>
      <trkpt lat="41.70828" lon="8.85452">
        <ele>227.01</ele>
        <time>2022-04-27T10:33:11Z</time>
      </trkpt>
      <trkpt lat="41.70842" lon="8.85467">
        <ele>228.93</ele>
        <time>2022-04-27T10:33:33Z</time>
      </trkpt>
      <trkpt lat="41.70847" lon="8.85478">
        <ele>229.41</ele>
        <time>2022-04-27T10:33:47Z</time>
      </trkpt>
      <trkpt lat="41.70856" lon="8.85491">
        <ele>230.37</ele>
        <time>2022-04-27T10:34:03Z</time>
      </trkpt>
      <trkpt lat="41.70863" lon="8.85503">
        <ele>230.85</ele>
        <time>2022-04-27T10:34:16Z</time>
      </trkpt>
      <trkpt lat="41.70869" lon="8.8551">
        <ele>234.22</ele>
        <time>2022-04-27T10:34:32Z</time>
      </trkpt>
      <trkpt lat="41.70875" lon="8.85522">
        <ele>236.14</ele>
        <time>2022-04-27T10:34:48Z</time>
      </trkpt>
      <trkpt lat="41.70884" lon="8.85525">
        <ele>239.02</ele>
        <time>2022-04-27T10:35:06Z</time>
      </trkpt>
      <trkpt lat="41.70889" lon="8.85535">
        <ele>240.95</ele>
        <time>2022-04-27T10:35:24Z</time>
      </trkpt>
      <trkpt lat="41.70896" lon="8.85537">
        <ele>241.91</ele>
        <time>2022-04-27T10:35:39Z</time>
      </trkpt>
      <trkpt lat="41.70916" lon="8.85548">
        <ele>243.83</ele>
        <time>2022-04-27T10:35:59Z</time>
      </trkpt>
      <trkpt lat="41.70923" lon="8.85556">
        <ele>247.2</ele>
        <time>2022-04-27T10:36:14Z</time>
      </trkpt>
      <trkpt lat="41.70935" lon="8.85565">
        <ele>250.56</ele>
        <time>2022-04-27T10:36:33Z</time>
      </trkpt>
      <trkpt lat="41.70942" lon="8.85571">
        <ele>252</ele>
        <time>2022-04-27T10:36:50Z</time>
      </trkpt>
      <trkpt lat="41.70953" lon="8.85578">
        <ele>255.37</ele>
        <time>2022-04-27T10:37:06Z</time>
      </trkpt>
      <trkpt lat="41.70958" lon="8.85582">
        <ele>258.25</ele>
        <time>2022-04-27T10:37:24Z</time>
      </trkpt>
      <trkpt lat="41.70962" lon="8.8559">
        <ele>260.17</ele>
        <time>2022-04-27T10:37:38Z</time>
      </trkpt>
      <trkpt lat="41.70967" lon="8.85596">
        <ele>262.1</ele>
        <time>2022-04-27T10:37:52Z</time>
      </trkpt>
      <trkpt lat="41.70975" lon="8.85599">
        <ele>264.98</ele>
        <time>2022-04-27T10:38:09Z</time>
      </trkpt>
      <trkpt lat="41.70986" lon="8.85603">
        <ele>266.9</ele>
        <time>2022-04-27T10:38:28Z</time>
      </trkpt>
      <trkpt lat="41.70996" lon="8.85603">
        <ele>270.27</ele>
        <time>2022-04-27T10:38:44Z</time>
      </trkpt>
      <trkpt lat="41.71004" lon="8.85607">
        <ele>272.67</ele>
        <time>2022-04-27T10:38:59Z</time>
      </trkpt>
      <trkpt lat="41.71017" lon="8.85609">
        <ele>275.56</ele>
        <time>2022-04-27T10:39:19Z</time>
      </trkpt>
      <trkpt lat="41.7102" lon="8.85607">
        <ele>275.56</ele>
        <time>2022-04-27T10:39:37Z</time>
      </trkpt>
      <trkpt lat="41.71026" lon="8.85619">
        <ele>276.52</ele>
        <time>2022-04-27T10:39:54Z</time>
      </trkpt>
      <trkpt lat="41.71033" lon="8.85627">
        <ele>279.88</ele>
        <time>2022-04-27T10:40:09Z</time>
      </trkpt>
      <trkpt lat="41.71043" lon="8.8563">
        <ele>282.28</ele>
        <time>2022-04-27T10:40:26Z</time>
      </trkpt>
      <trkpt lat="41.71053" lon="8.85633">
        <ele>284.69</ele>
        <time>2022-04-27T10:40:43Z</time>
      </trkpt>
      <trkpt lat="41.71057" lon="8.85633">
        <ele>288.53</ele>
        <time>2022-04-27T10:41:00Z</time>
      </trkpt>
      <trkpt lat="41.71057" lon="8.85633">
        <ele>285.17</ele>
        <time>2022-04-27T10:41:03Z</time>
      </trkpt>
      <trkpt lat="41.71058" lon="8.85633">
        <ele>287.09</ele>
        <time>2022-04-27T10:41:06Z</time>
      </trkpt>
      <trkpt lat="41.71056" lon="8.85648">
        <ele>287.09</ele>
        <time>2022-04-27T10:41:21Z</time>
      </trkpt>
      <trkpt lat="41.71057" lon="8.8565">
        <ele>287.09</ele>
        <time>2022-04-27T10:41:37Z</time>
      </trkpt>
      <trkpt lat="41.71057" lon="8.85647">
        <ele>287.09</ele>
        <time>2022-04-27T10:41:58Z</time>
      </trkpt>
      <trkpt lat="41.71058" lon="8.85647">
        <ele>287.57</ele>
        <time>2022-04-27T10:42:26Z</time>
      </trkpt>
      <trkpt lat="41.71061" lon="8.85647">
        <ele>288.05</ele>
        <time>2022-04-27T10:42:57Z</time>
      </trkpt>
      <trkpt lat="41.71062" lon="8.85647">
        <ele>287.57</ele>
        <time>2022-04-27T10:43:22Z</time>
      </trkpt>
      <trkpt lat="41.71061" lon="8.85648">
        <ele>288.05</ele>
        <time>2022-04-27T10:43:57Z</time>
      </trkpt>
      <trkpt lat="41.71056" lon="8.85653">
        <ele>287.57</ele>
        <time>2022-04-27T10:44:30Z</time>
      </trkpt>
      <trkpt lat="41.71051" lon="8.85671">
        <ele>288.05</ele>
        <time>2022-04-27T10:44:47Z</time>
      </trkpt>
      <trkpt lat="41.7105" lon="8.85674">
        <ele>288.53</ele>
        <time>2022-04-27T10:45:01Z</time>
      </trkpt>
      <trkpt lat="41.71055" lon="8.85668">
        <ele>288.05</ele>
        <time>2022-04-27T10:45:43Z</time>
      </trkpt>
      <trkpt lat="41.7105" lon="8.85693">
        <ele>289.97</ele>
        <time>2022-04-27T10:46:03Z</time>
      </trkpt>
      <trkpt lat="41.71052" lon="8.85712">
        <ele>290.94</ele>
        <time>2022-04-27T10:46:17Z</time>
      </trkpt>
      <trkpt lat="41.71051" lon="8.85721">
        <ele>291.42</ele>
        <time>2022-04-27T10:46:22Z</time>
      </trkpt>
      <trkpt lat="41.71056" lon="8.85744">
        <ele>292.38</ele>
        <time>2022-04-27T10:46:38Z</time>
      </trkpt>
      <trkpt lat="41.71057" lon="8.85748">
        <ele>292.38</ele>
        <time>2022-04-27T10:46:41Z</time>
      </trkpt>
      <trkpt lat="41.71067" lon="8.85769">
        <ele>292.86</ele>
        <time>2022-04-27T10:46:58Z</time>
      </trkpt>
      <trkpt lat="41.71078" lon="8.85788">
        <ele>293.82</ele>
        <time>2022-04-27T10:47:14Z</time>
      </trkpt>
      <trkpt lat="41.71087" lon="8.85811">
        <ele>293.82</ele>
        <time>2022-04-27T10:47:31Z</time>
      </trkpt>
      <trkpt lat="41.71094" lon="8.85831">
        <ele>289.97</ele>
        <time>2022-04-27T10:47:46Z</time>
      </trkpt>
      <trkpt lat="41.71105" lon="8.85852">
        <ele>287.57</ele>
        <time>2022-04-27T10:48:02Z</time>
      </trkpt>
      <trkpt lat="41.71107" lon="8.85855">
        <ele>287.09</ele>
        <time>2022-04-27T10:48:04Z</time>
      </trkpt>
      <trkpt lat="41.71109" lon="8.85858">
        <ele>286.13</ele>
        <time>2022-04-27T10:48:06Z</time>
      </trkpt>
      <trkpt lat="41.71121" lon="8.85876">
        <ele>285.17</ele>
        <time>2022-04-27T10:48:23Z</time>
      </trkpt>
      <trkpt lat="41.71131" lon="8.85892">
        <ele>285.17</ele>
        <time>2022-04-27T10:48:40Z</time>
      </trkpt>
      <trkpt lat="41.71141" lon="8.85909">
        <ele>284.69</ele>
        <time>2022-04-27T10:48:56Z</time>
      </trkpt>
      <trkpt lat="41.71147" lon="8.85923">
        <ele>284.21</ele>
        <time>2022-04-27T10:49:06Z</time>
      </trkpt>
      <trkpt lat="41.71151" lon="8.85942">
        <ele>282.77</ele>
        <time>2022-04-27T10:49:19Z</time>
      </trkpt>
      <trkpt lat="41.71157" lon="8.85971">
        <ele>283.25</ele>
        <time>2022-04-27T10:49:38Z</time>
      </trkpt>
      <trkpt lat="41.7117" lon="8.8599">
        <ele>285.65</ele>
        <time>2022-04-27T10:49:57Z</time>
      </trkpt>
      <trkpt lat="41.71189" lon="8.8601">
        <ele>286.61</ele>
        <time>2022-04-27T10:50:18Z</time>
      </trkpt>
      <trkpt lat="41.71198" lon="8.86033">
        <ele>287.09</ele>
        <time>2022-04-27T10:50:36Z</time>
      </trkpt>
      <trkpt lat="41.71202" lon="8.86051">
        <ele>288.53</ele>
        <time>2022-04-27T10:50:52Z</time>
      </trkpt>
      <trkpt lat="41.71206" lon="8.86075">
        <ele>290.94</ele>
        <time>2022-04-27T10:51:10Z</time>
      </trkpt>
      <trkpt lat="41.7121" lon="8.8609">
        <ele>293.34</ele>
        <time>2022-04-27T10:51:24Z</time>
      </trkpt>
      <trkpt lat="41.71216" lon="8.86107">
        <ele>295.26</ele>
        <time>2022-04-27T10:51:40Z</time>
      </trkpt>
      <trkpt lat="41.71223" lon="8.86122">
        <ele>297.67</ele>
        <time>2022-04-27T10:51:56Z</time>
      </trkpt>
      <trkpt lat="41.71226" lon="8.86122">
        <ele>298.15</ele>
        <time>2022-04-27T10:52:13Z</time>
      </trkpt>
      <trkpt lat="41.7123" lon="8.86141">
        <ele>299.59</ele>
        <time>2022-04-27T10:52:30Z</time>
      </trkpt>
      <trkpt lat="41.71235" lon="8.86159">
        <ele>301.03</ele>
        <time>2022-04-27T10:52:47Z</time>
      </trkpt>
      <trkpt lat="41.7124" lon="8.86176">
        <ele>303.43</ele>
        <time>2022-04-27T10:53:02Z</time>
      </trkpt>
      <trkpt lat="41.71244" lon="8.86193">
        <ele>306.32</ele>
        <time>2022-04-27T10:53:19Z</time>
      </trkpt>
      <trkpt lat="41.7125" lon="8.86209">
        <ele>308.72</ele>
        <time>2022-04-27T10:53:35Z</time>
      </trkpt>
      <trkpt lat="41.71261" lon="8.86224">
        <ele>311.6</ele>
        <time>2022-04-27T10:53:52Z</time>
      </trkpt>
      <trkpt lat="41.71271" lon="8.86236">
        <ele>313.53</ele>
        <time>2022-04-27T10:54:08Z</time>
      </trkpt>
      <trkpt lat="41.71282" lon="8.86247">
        <ele>316.41</ele>
        <time>2022-04-27T10:54:24Z</time>
      </trkpt>
      <trkpt lat="41.71293" lon="8.86259">
        <ele>319.3</ele>
        <time>2022-04-27T10:54:40Z</time>
      </trkpt>
      <trkpt lat="41.71305" lon="8.86274">
        <ele>322.18</ele>
        <time>2022-04-27T10:54:58Z</time>
      </trkpt>
      <trkpt lat="41.71315" lon="8.86284">
        <ele>323.62</ele>
        <time>2022-04-27T10:55:14Z</time>
      </trkpt>
      <trkpt lat="41.71325" lon="8.86295">
        <ele>326.02</ele>
        <time>2022-04-27T10:55:29Z</time>
      </trkpt>
      <trkpt lat="41.71343" lon="8.8631">
        <ele>328.91</ele>
        <time>2022-04-27T10:55:50Z</time>
      </trkpt>
      <trkpt lat="41.71356" lon="8.8632">
        <ele>330.83</ele>
        <time>2022-04-27T10:56:07Z</time>
      </trkpt>
      <trkpt lat="41.71367" lon="8.86334">
        <ele>333.71</ele>
        <time>2022-04-27T10:56:24Z</time>
      </trkpt>
      <trkpt lat="41.71372" lon="8.86339">
        <ele>337.08</ele>
        <time>2022-04-27T10:56:39Z</time>
      </trkpt>
      <trkpt lat="41.71377" lon="8.86347">
        <ele>336.12</ele>
        <time>2022-04-27T10:56:48Z</time>
      </trkpt>
      <trkpt lat="41.71385" lon="8.86358">
        <ele>338.04</ele>
        <time>2022-04-27T10:57:02Z</time>
      </trkpt>
      <trkpt lat="41.71395" lon="8.8637">
        <ele>339.96</ele>
        <time>2022-04-27T10:57:17Z</time>
      </trkpt>
      <trkpt lat="41.71411" lon="8.86386">
        <ele>340.92</ele>
        <time>2022-04-27T10:57:35Z</time>
      </trkpt>
      <trkpt lat="41.71427" lon="8.86405">
        <ele>341.89</ele>
        <time>2022-04-27T10:57:53Z</time>
      </trkpt>
      <trkpt lat="41.7144" lon="8.8642">
        <ele>340.92</ele>
        <time>2022-04-27T10:58:08Z</time>
      </trkpt>
      <trkpt lat="41.71442" lon="8.8643">
        <ele>341.41</ele>
        <time>2022-04-27T10:58:24Z</time>
      </trkpt>
      <trkpt lat="41.71442" lon="8.86431">
        <ele>341.89</ele>
        <time>2022-04-27T10:58:47Z</time>
      </trkpt>
      <trkpt lat="41.71441" lon="8.86429">
        <ele>341.89</ele>
        <time>2022-04-27T10:59:18Z</time>
      </trkpt>
      <trkpt lat="41.71442" lon="8.86427">
        <ele>342.37</ele>
        <time>2022-04-27T10:59:34Z</time>
      </trkpt>
      <trkpt lat="41.71447" lon="8.86427">
        <ele>342.85</ele>
        <time>2022-04-27T11:00:02Z</time>
      </trkpt>
      <trkpt lat="41.71449" lon="8.8644">
        <ele>342.37</ele>
        <time>2022-04-27T11:00:25Z</time>
      </trkpt>
      <trkpt lat="41.71459" lon="8.86461">
        <ele>343.33</ele>
        <time>2022-04-27T11:00:43Z</time>
      </trkpt>
      <trkpt lat="41.71469" lon="8.86485">
        <ele>343.33</ele>
        <time>2022-04-27T11:01:01Z</time>
      </trkpt>
      <trkpt lat="41.71474" lon="8.86497">
        <ele>342.85</ele>
        <time>2022-04-27T11:01:14Z</time>
      </trkpt>
      <trkpt lat="41.71487" lon="8.8652">
        <ele>342.37</ele>
        <time>2022-04-27T11:01:32Z</time>
      </trkpt>
      <trkpt lat="41.71503" lon="8.86545">
        <ele>339.48</ele>
        <time>2022-04-27T11:01:51Z</time>
      </trkpt>
      <trkpt lat="41.71516" lon="8.86567">
        <ele>339</ele>
        <time>2022-04-27T11:02:08Z</time>
      </trkpt>
      <trkpt lat="41.71524" lon="8.86591">
        <ele>339.96</ele>
        <time>2022-04-27T11:02:27Z</time>
      </trkpt>
      <trkpt lat="41.71526" lon="8.86594">
        <ele>340.92</ele>
        <time>2022-04-27T11:02:30Z</time>
      </trkpt>
      <trkpt lat="41.71541" lon="8.86614">
        <ele>341.89</ele>
        <time>2022-04-27T11:02:49Z</time>
      </trkpt>
      <trkpt lat="41.71545" lon="8.86621">
        <ele>341.89</ele>
        <time>2022-04-27T11:03:01Z</time>
      </trkpt>
      <trkpt lat="41.71552" lon="8.86632">
        <ele>340.92</ele>
        <time>2022-04-27T11:03:15Z</time>
      </trkpt>
      <trkpt lat="41.71559" lon="8.86649">
        <ele>340.44</ele>
        <time>2022-04-27T11:03:29Z</time>
      </trkpt>
      <trkpt lat="41.71564" lon="8.8666">
        <ele>339.96</ele>
        <time>2022-04-27T11:03:36Z</time>
      </trkpt>
      <trkpt lat="41.71568" lon="8.86666">
        <ele>340.44</ele>
        <time>2022-04-27T11:03:40Z</time>
      </trkpt>
      <trkpt lat="41.71587" lon="8.86696">
        <ele>337.56</ele>
        <time>2022-04-27T11:04:03Z</time>
      </trkpt>
      <trkpt lat="41.71596" lon="8.86712">
        <ele>337.56</ele>
        <time>2022-04-27T11:04:20Z</time>
      </trkpt>
      <trkpt lat="41.7161" lon="8.86733">
        <ele>336.6</ele>
        <time>2022-04-27T11:04:37Z</time>
      </trkpt>
      <trkpt lat="41.71624" lon="8.86757">
        <ele>336.6</ele>
        <time>2022-04-27T11:04:56Z</time>
      </trkpt>
      <trkpt lat="41.7164" lon="8.86783">
        <ele>336.12</ele>
        <time>2022-04-27T11:05:15Z</time>
      </trkpt>
      <trkpt lat="41.71648" lon="8.86796">
        <ele>335.16</ele>
        <time>2022-04-27T11:05:24Z</time>
      </trkpt>
      <trkpt lat="41.71663" lon="8.86824">
        <ele>333.71</ele>
        <time>2022-04-27T11:05:45Z</time>
      </trkpt>
      <trkpt lat="41.71675" lon="8.86854">
        <ele>331.79</ele>
        <time>2022-04-27T11:06:04Z</time>
      </trkpt>
      <trkpt lat="41.71678" lon="8.86864">
        <ele>331.79</ele>
        <time>2022-04-27T11:06:10Z</time>
      </trkpt>
      <trkpt lat="41.71685" lon="8.8689">
        <ele>329.39</ele>
        <time>2022-04-27T11:06:26Z</time>
      </trkpt>
      <trkpt lat="41.71691" lon="8.86908">
        <ele>328.43</ele>
        <time>2022-04-27T11:06:38Z</time>
      </trkpt>
      <trkpt lat="41.71691" lon="8.86909">
        <ele>328.43</ele>
        <time>2022-04-27T11:06:39Z</time>
      </trkpt>
      <trkpt lat="41.71692" lon="8.86912">
        <ele>327.47</ele>
        <time>2022-04-27T11:06:41Z</time>
      </trkpt>
      <trkpt lat="41.71702" lon="8.86939">
        <ele>327.47</ele>
        <time>2022-04-27T11:06:59Z</time>
      </trkpt>
      <trkpt lat="41.7171" lon="8.86963">
        <ele>326.99</ele>
        <time>2022-04-27T11:07:14Z</time>
      </trkpt>
      <trkpt lat="41.7171" lon="8.86964">
        <ele>326.99</ele>
        <time>2022-04-27T11:07:15Z</time>
      </trkpt>
      <trkpt lat="41.71718" lon="8.86981">
        <ele>326.02</ele>
        <time>2022-04-27T11:07:31Z</time>
      </trkpt>
      <trkpt lat="41.71725" lon="8.87009">
        <ele>324.58</ele>
        <time>2022-04-27T11:07:48Z</time>
      </trkpt>
      <trkpt lat="41.71729" lon="8.87033">
        <ele>325.54</ele>
        <time>2022-04-27T11:08:05Z</time>
      </trkpt>
      <trkpt lat="41.71731" lon="8.87056">
        <ele>326.5</ele>
        <time>2022-04-27T11:08:22Z</time>
      </trkpt>
      <trkpt lat="41.71738" lon="8.87082">
        <ele>329.87</ele>
        <time>2022-04-27T11:08:40Z</time>
      </trkpt>
      <trkpt lat="41.71745" lon="8.871">
        <ele>331.31</ele>
        <time>2022-04-27T11:08:55Z</time>
      </trkpt>
      <trkpt lat="41.7175" lon="8.87118">
        <ele>334.2</ele>
        <time>2022-04-27T11:09:10Z</time>
      </trkpt>
      <trkpt lat="41.71752" lon="8.87134">
        <ele>336.12</ele>
        <time>2022-04-27T11:09:25Z</time>
      </trkpt>
      <trkpt lat="41.71756" lon="8.8715">
        <ele>339</ele>
        <time>2022-04-27T11:09:41Z</time>
      </trkpt>
      <trkpt lat="41.71758" lon="8.87162">
        <ele>340.92</ele>
        <time>2022-04-27T11:10:00Z</time>
      </trkpt>
      <trkpt lat="41.71763" lon="8.87175">
        <ele>342.85</ele>
        <time>2022-04-27T11:10:13Z</time>
      </trkpt>
      <trkpt lat="41.7177" lon="8.8719">
        <ele>344.77</ele>
        <time>2022-04-27T11:10:28Z</time>
      </trkpt>
      <trkpt lat="41.71774" lon="8.87204">
        <ele>346.69</ele>
        <time>2022-04-27T11:10:41Z</time>
      </trkpt>
      <trkpt lat="41.71775" lon="8.87206">
        <ele>348.13</ele>
        <time>2022-04-27T11:10:43Z</time>
      </trkpt>
      <trkpt lat="41.7178" lon="8.87225">
        <ele>348.62</ele>
        <time>2022-04-27T11:10:59Z</time>
      </trkpt>
      <trkpt lat="41.71788" lon="8.87249">
        <ele>350.54</ele>
        <time>2022-04-27T11:11:16Z</time>
      </trkpt>
      <trkpt lat="41.71788" lon="8.87266">
        <ele>351.98</ele>
        <time>2022-04-27T11:11:30Z</time>
      </trkpt>
      <trkpt lat="41.71774" lon="8.87254">
        <ele>352.94</ele>
        <time>2022-04-27T11:11:46Z</time>
      </trkpt>
      <trkpt lat="41.71769" lon="8.87246">
        <ele>353.42</ele>
        <time>2022-04-27T11:12:01Z</time>
      </trkpt>
      <trkpt lat="41.71765" lon="8.87244">
        <ele>353.42</ele>
        <time>2022-04-27T11:12:17Z</time>
      </trkpt>
      <trkpt lat="41.7176" lon="8.87246">
        <ele>354.38</ele>
        <time>2022-04-27T11:12:25Z</time>
      </trkpt>
      <trkpt lat="41.71757" lon="8.87248">
        <ele>355.34</ele>
        <time>2022-04-27T11:12:28Z</time>
      </trkpt>
      <trkpt lat="41.71765" lon="8.87247">
        <ele>352.46</ele>
        <time>2022-04-27T11:12:36Z</time>
      </trkpt>
      <trkpt lat="41.71767" lon="8.87242">
        <ele>352.94</ele>
        <time>2022-04-27T11:12:42Z</time>
      </trkpt>
      <trkpt lat="41.71765" lon="8.87238">
        <ele>353.42</ele>
        <time>2022-04-27T11:12:44Z</time>
      </trkpt>
      <trkpt lat="41.71756" lon="8.87234">
        <ele>353.42</ele>
        <time>2022-04-27T11:13:00Z</time>
      </trkpt>
      <trkpt lat="41.71751" lon="8.8723">
        <ele>353.42</ele>
        <time>2022-04-27T11:13:23Z</time>
      </trkpt>
      <trkpt lat="41.71748" lon="8.87229">
        <ele>352.94</ele>
        <time>2022-04-27T11:13:25Z</time>
      </trkpt>
      <trkpt lat="41.71727" lon="8.87218">
        <ele>353.9</ele>
        <time>2022-04-27T11:13:44Z</time>
      </trkpt>
      <trkpt lat="41.71711" lon="8.87216">
        <ele>354.38</ele>
        <time>2022-04-27T11:14:00Z</time>
      </trkpt>
      <trkpt lat="41.7169" lon="8.87219">
        <ele>355.83</ele>
        <time>2022-04-27T11:14:16Z</time>
      </trkpt>
      <trkpt lat="41.71671" lon="8.87221">
        <ele>357.75</ele>
        <time>2022-04-27T11:14:33Z</time>
      </trkpt>
      <trkpt lat="41.71651" lon="8.87229">
        <ele>359.67</ele>
        <time>2022-04-27T11:14:52Z</time>
      </trkpt>
      <trkpt lat="41.71636" lon="8.87234">
        <ele>362.07</ele>
        <time>2022-04-27T11:15:07Z</time>
      </trkpt>
      <trkpt lat="41.7162" lon="8.87238">
        <ele>364</ele>
        <time>2022-04-27T11:15:24Z</time>
      </trkpt>
      <trkpt lat="41.71617" lon="8.87238">
        <ele>364</ele>
        <time>2022-04-27T11:15:27Z</time>
      </trkpt>
      <trkpt lat="41.71607" lon="8.87247">
        <ele>364.48</ele>
        <time>2022-04-27T11:15:39Z</time>
      </trkpt>
      <trkpt lat="41.71605" lon="8.87248">
        <ele>364.96</ele>
        <time>2022-04-27T11:15:41Z</time>
      </trkpt>
      <trkpt lat="41.71599" lon="8.87262">
        <ele>365.92</ele>
        <time>2022-04-27T11:15:53Z</time>
      </trkpt>
      <trkpt lat="41.71591" lon="8.87277">
        <ele>366.88</ele>
        <time>2022-04-27T11:16:08Z</time>
      </trkpt>
      <trkpt lat="41.71587" lon="8.87285">
        <ele>366.88</ele>
        <time>2022-04-27T11:16:22Z</time>
      </trkpt>
      <trkpt lat="41.71585" lon="8.87283">
        <ele>364.48</ele>
        <time>2022-04-27T11:53:21Z</time>
      </trkpt>
      <trkpt lat="41.71581" lon="8.87301">
        <ele>364.48</ele>
        <time>2022-04-27T11:53:22Z</time>
      </trkpt>
      <trkpt lat="41.71573" lon="8.87297">
        <ele>365.44</ele>
        <time>2022-04-27T11:53:41Z</time>
      </trkpt>
      <trkpt lat="41.71585" lon="8.87283">
        <ele>364.96</ele>
        <time>2022-04-27T12:04:53Z</time>
      </trkpt>
      <trkpt lat="41.71568" lon="8.87306">
        <ele>365.44</ele>
        <time>2022-04-27T12:04:54Z</time>
      </trkpt>
      <trkpt lat="41.71573" lon="8.87307">
        <ele>367.36</ele>
        <time>2022-04-27T12:05:17Z</time>
      </trkpt>
      <trkpt lat="41.71567" lon="8.8732">
        <ele>369.76</ele>
        <time>2022-04-27T12:05:34Z</time>
      </trkpt>
      <trkpt lat="41.71561" lon="8.87332">
        <ele>371.69</ele>
        <time>2022-04-27T12:05:49Z</time>
      </trkpt>
      <trkpt lat="41.71555" lon="8.87344">
        <ele>371.21</ele>
        <time>2022-04-27T12:06:06Z</time>
      </trkpt>
      <trkpt lat="41.71548" lon="8.87361">
        <ele>372.17</ele>
        <time>2022-04-27T12:06:22Z</time>
      </trkpt>
      <trkpt lat="41.71549" lon="8.8738">
        <ele>374.09</ele>
        <time>2022-04-27T12:06:38Z</time>
      </trkpt>
      <trkpt lat="41.71546" lon="8.87402">
        <ele>375.53</ele>
        <time>2022-04-27T12:06:52Z</time>
      </trkpt>
      <trkpt lat="41.71544" lon="8.8742">
        <ele>376.01</ele>
        <time>2022-04-27T12:07:13Z</time>
      </trkpt>
      <trkpt lat="41.71542" lon="8.87425">
        <ele>374.57</ele>
        <time>2022-04-27T12:07:28Z</time>
      </trkpt>
      <trkpt lat="41.71535" lon="8.8744">
        <ele>372.17</ele>
        <time>2022-04-27T12:07:43Z</time>
      </trkpt>
      <trkpt lat="41.71527" lon="8.87468">
        <ele>370.73</ele>
        <time>2022-04-27T12:08:02Z</time>
      </trkpt>
      <trkpt lat="41.71521" lon="8.87481">
        <ele>371.21</ele>
        <time>2022-04-27T12:08:24Z</time>
      </trkpt>
      <trkpt lat="41.71521" lon="8.87496">
        <ele>370.73</ele>
        <time>2022-04-27T12:08:48Z</time>
      </trkpt>
      <trkpt lat="41.71525" lon="8.8752">
        <ele>371.21</ele>
        <time>2022-04-27T12:09:05Z</time>
      </trkpt>
      <trkpt lat="41.7153" lon="8.87543">
        <ele>371.21</ele>
        <time>2022-04-27T12:09:22Z</time>
      </trkpt>
      <trkpt lat="41.71535" lon="8.87579">
        <ele>371.21</ele>
        <time>2022-04-27T12:09:44Z</time>
      </trkpt>
      <trkpt lat="41.71545" lon="8.87606">
        <ele>370.73</ele>
        <time>2022-04-27T12:10:02Z</time>
      </trkpt>
      <trkpt lat="41.71557" lon="8.87624">
        <ele>373.13</ele>
        <time>2022-04-27T12:10:20Z</time>
      </trkpt>
      <trkpt lat="41.71555" lon="8.87644">
        <ele>373.61</ele>
        <time>2022-04-27T12:10:39Z</time>
      </trkpt>
      <trkpt lat="41.71551" lon="8.87668">
        <ele>374.57</ele>
        <time>2022-04-27T12:10:59Z</time>
      </trkpt>
      <trkpt lat="41.71552" lon="8.87686">
        <ele>376.01</ele>
        <time>2022-04-27T12:11:17Z</time>
      </trkpt>
      <trkpt lat="41.7155" lon="8.87702">
        <ele>376.97</ele>
        <time>2022-04-27T12:11:31Z</time>
      </trkpt>
      <trkpt lat="41.71542" lon="8.87723">
        <ele>377.45</ele>
        <time>2022-04-27T12:11:49Z</time>
      </trkpt>
      <trkpt lat="41.71528" lon="8.87743">
        <ele>378.42</ele>
        <time>2022-04-27T12:12:10Z</time>
      </trkpt>
      <trkpt lat="41.7152" lon="8.87765">
        <ele>378.42</ele>
        <time>2022-04-27T12:12:31Z</time>
      </trkpt>
      <trkpt lat="41.71511" lon="8.87785">
        <ele>379.38</ele>
        <time>2022-04-27T12:12:48Z</time>
      </trkpt>
      <trkpt lat="41.71499" lon="8.87814">
        <ele>376.97</ele>
        <time>2022-04-27T12:13:10Z</time>
      </trkpt>
      <trkpt lat="41.71492" lon="8.87832">
        <ele>377.45</ele>
        <time>2022-04-27T12:13:23Z</time>
      </trkpt>
      <trkpt lat="41.71484" lon="8.87854">
        <ele>376.97</ele>
        <time>2022-04-27T12:13:38Z</time>
      </trkpt>
      <trkpt lat="41.71486" lon="8.87867">
        <ele>377.45</ele>
        <time>2022-04-27T12:13:48Z</time>
      </trkpt>
      <trkpt lat="41.71487" lon="8.87898">
        <ele>377.94</ele>
        <time>2022-04-27T12:14:08Z</time>
      </trkpt>
      <trkpt lat="41.71492" lon="8.87922">
        <ele>376.97</ele>
        <time>2022-04-27T12:14:25Z</time>
      </trkpt>
      <trkpt lat="41.71491" lon="8.87949">
        <ele>376.49</ele>
        <time>2022-04-27T12:14:41Z</time>
      </trkpt>
      <trkpt lat="41.71488" lon="8.87952">
        <ele>376.49</ele>
        <time>2022-04-27T12:14:58Z</time>
      </trkpt>
      <trkpt lat="41.71487" lon="8.87956">
        <ele>376.49</ele>
        <time>2022-04-27T12:15:36Z</time>
      </trkpt>
      <trkpt lat="41.71489" lon="8.87959">
        <ele>376.49</ele>
        <time>2022-04-27T12:15:54Z</time>
      </trkpt>
      <trkpt lat="41.71493" lon="8.8798">
        <ele>376.97</ele>
        <time>2022-04-27T12:16:11Z</time>
      </trkpt>
      <trkpt lat="41.71492" lon="8.88005">
        <ele>377.45</ele>
        <time>2022-04-27T12:16:30Z</time>
      </trkpt>
      <trkpt lat="41.7149" lon="8.88023">
        <ele>377.94</ele>
        <time>2022-04-27T12:16:50Z</time>
      </trkpt>
      <trkpt lat="41.71489" lon="8.88037">
        <ele>378.9</ele>
        <time>2022-04-27T12:17:12Z</time>
      </trkpt>
      <trkpt lat="41.71492" lon="8.88049">
        <ele>379.86</ele>
        <time>2022-04-27T12:17:29Z</time>
      </trkpt>
      <trkpt lat="41.71494" lon="8.88062">
        <ele>380.34</ele>
        <time>2022-04-27T12:17:48Z</time>
      </trkpt>
      <trkpt lat="41.71494" lon="8.88071">
        <ele>378.9</ele>
        <time>2022-04-27T12:17:59Z</time>
      </trkpt>
      <trkpt lat="41.71493" lon="8.88076">
        <ele>377.45</ele>
        <time>2022-04-27T12:18:04Z</time>
      </trkpt>
      <trkpt lat="41.71484" lon="8.88088">
        <ele>376.49</ele>
        <time>2022-04-27T12:18:19Z</time>
      </trkpt>
      <trkpt lat="41.71483" lon="8.8809">
        <ele>375.53</ele>
        <time>2022-04-27T12:18:29Z</time>
      </trkpt>
      <trkpt lat="41.71483" lon="8.881">
        <ele>374.57</ele>
        <time>2022-04-27T12:18:37Z</time>
      </trkpt>
      <trkpt lat="41.71479" lon="8.8811">
        <ele>372.65</ele>
        <time>2022-04-27T12:18:46Z</time>
      </trkpt>
      <trkpt lat="41.71477" lon="8.88122">
        <ele>370.73</ele>
        <time>2022-04-27T12:18:54Z</time>
      </trkpt>
      <trkpt lat="41.71467" lon="8.88129">
        <ele>366.88</ele>
        <time>2022-04-27T12:19:05Z</time>
      </trkpt>
      <trkpt lat="41.71464" lon="8.88152">
        <ele>363.52</ele>
        <time>2022-04-27T12:19:19Z</time>
      </trkpt>
      <trkpt lat="41.71465" lon="8.88163">
        <ele>360.15</ele>
        <time>2022-04-27T12:19:28Z</time>
      </trkpt>
      <trkpt lat="41.71464" lon="8.88173">
        <ele>359.19</ele>
        <time>2022-04-27T12:19:53Z</time>
      </trkpt>
      <trkpt lat="41.71471" lon="8.8819">
        <ele>356.79</ele>
        <time>2022-04-27T12:20:09Z</time>
      </trkpt>
      <trkpt lat="41.71481" lon="8.8821">
        <ele>356.31</ele>
        <time>2022-04-27T12:20:25Z</time>
      </trkpt>
      <trkpt lat="41.71485" lon="8.88222">
        <ele>355.83</ele>
        <time>2022-04-27T12:20:46Z</time>
      </trkpt>
      <trkpt lat="41.71488" lon="8.88236">
        <ele>355.34</ele>
        <time>2022-04-27T12:21:03Z</time>
      </trkpt>
      <trkpt lat="41.71494" lon="8.88241">
        <ele>351.98</ele>
        <time>2022-04-27T12:21:14Z</time>
      </trkpt>
      <trkpt lat="41.71495" lon="8.88251">
        <ele>349.58</ele>
        <time>2022-04-27T12:21:26Z</time>
      </trkpt>
      <trkpt lat="41.71507" lon="8.88269">
        <ele>349.1</ele>
        <time>2022-04-27T12:21:49Z</time>
      </trkpt>
      <trkpt lat="41.7151" lon="8.88271">
        <ele>347.65</ele>
        <time>2022-04-27T12:22:10Z</time>
      </trkpt>
      <trkpt lat="41.71508" lon="8.88277">
        <ele>347.65</ele>
        <time>2022-04-27T12:22:44Z</time>
      </trkpt>
      <trkpt lat="41.7151" lon="8.88298">
        <ele>346.21</ele>
        <time>2022-04-27T12:23:02Z</time>
      </trkpt>
      <trkpt lat="41.71511" lon="8.88308">
        <ele>347.17</ele>
        <time>2022-04-27T12:23:30Z</time>
      </trkpt>
      <trkpt lat="41.71517" lon="8.8832">
        <ele>350.06</ele>
        <time>2022-04-27T12:23:47Z</time>
      </trkpt>
      <trkpt lat="41.71523" lon="8.8834">
        <ele>351.5</ele>
        <time>2022-04-27T12:24:05Z</time>
      </trkpt>
      <trkpt lat="41.71521" lon="8.8836">
        <ele>351.02</ele>
        <time>2022-04-27T12:24:22Z</time>
      </trkpt>
      <trkpt lat="41.71517" lon="8.88377">
        <ele>350.06</ele>
        <time>2022-04-27T12:24:40Z</time>
      </trkpt>
      <trkpt lat="41.71516" lon="8.88382">
        <ele>350.54</ele>
        <time>2022-04-27T12:24:43Z</time>
      </trkpt>
      <trkpt lat="41.71513" lon="8.88387">
        <ele>350.54</ele>
        <time>2022-04-27T12:24:47Z</time>
      </trkpt>
      <trkpt lat="41.7151" lon="8.88391">
        <ele>350.54</ele>
        <time>2022-04-27T12:24:50Z</time>
      </trkpt>
      <trkpt lat="41.7151" lon="8.88408">
        <ele>351.02</ele>
        <time>2022-04-27T12:25:07Z</time>
      </trkpt>
      <trkpt lat="41.7151" lon="8.88424">
        <ele>350.06</ele>
        <time>2022-04-27T12:25:22Z</time>
      </trkpt>
      <trkpt lat="41.71513" lon="8.88447">
        <ele>350.06</ele>
        <time>2022-04-27T12:25:39Z</time>
      </trkpt>
      <trkpt lat="41.71514" lon="8.88464">
        <ele>351.02</ele>
        <time>2022-04-27T12:25:58Z</time>
      </trkpt>
      <trkpt lat="41.71519" lon="8.88484">
        <ele>352.94</ele>
        <time>2022-04-27T12:26:17Z</time>
      </trkpt>
      <trkpt lat="41.71519" lon="8.88502">
        <ele>350.54</ele>
        <time>2022-04-27T12:26:32Z</time>
      </trkpt>
      <trkpt lat="41.71515" lon="8.88529">
        <ele>347.65</ele>
        <time>2022-04-27T12:26:51Z</time>
      </trkpt>
      <trkpt lat="41.71513" lon="8.8855">
        <ele>346.69</ele>
        <time>2022-04-27T12:27:10Z</time>
      </trkpt>
      <trkpt lat="41.7151" lon="8.8856">
        <ele>343.33</ele>
        <time>2022-04-27T12:27:23Z</time>
      </trkpt>
      <trkpt lat="41.71506" lon="8.88583">
        <ele>340.92</ele>
        <time>2022-04-27T12:27:41Z</time>
      </trkpt>
      <trkpt lat="41.71506" lon="8.88601">
        <ele>337.56</ele>
        <time>2022-04-27T12:27:58Z</time>
      </trkpt>
      <trkpt lat="41.71507" lon="8.88604">
        <ele>336.6</ele>
        <time>2022-04-27T12:28:00Z</time>
      </trkpt>
      <trkpt lat="41.71503" lon="8.88617">
        <ele>333.71</ele>
        <time>2022-04-27T12:28:15Z</time>
      </trkpt>
      <trkpt lat="41.71501" lon="8.88626">
        <ele>330.83</ele>
        <time>2022-04-27T12:28:29Z</time>
      </trkpt>
      <trkpt lat="41.71502" lon="8.88638">
        <ele>327.47</ele>
        <time>2022-04-27T12:28:43Z</time>
      </trkpt>
      <trkpt lat="41.71501" lon="8.88642">
        <ele>326.5</ele>
        <time>2022-04-27T12:28:47Z</time>
      </trkpt>
      <trkpt lat="41.71503" lon="8.88665">
        <ele>323.14</ele>
        <time>2022-04-27T12:29:02Z</time>
      </trkpt>
      <trkpt lat="41.71512" lon="8.88682">
        <ele>321.22</ele>
        <time>2022-04-27T12:29:18Z</time>
      </trkpt>
      <trkpt lat="41.7152" lon="8.88696">
        <ele>321.22</ele>
        <time>2022-04-27T12:29:33Z</time>
      </trkpt>
      <trkpt lat="41.71539" lon="8.88715">
        <ele>320.74</ele>
        <time>2022-04-27T12:29:52Z</time>
      </trkpt>
      <trkpt lat="41.71559" lon="8.88735">
        <ele>320.26</ele>
        <time>2022-04-27T12:30:14Z</time>
      </trkpt>
      <trkpt lat="41.7157" lon="8.88749">
        <ele>320.26</ele>
        <time>2022-04-27T12:30:30Z</time>
      </trkpt>
      <trkpt lat="41.71576" lon="8.88759">
        <ele>320.26</ele>
        <time>2022-04-27T12:30:49Z</time>
      </trkpt>
      <trkpt lat="41.71585" lon="8.88778">
        <ele>317.37</ele>
        <time>2022-04-27T12:31:09Z</time>
      </trkpt>
      <trkpt lat="41.71594" lon="8.88796">
        <ele>316.89</ele>
        <time>2022-04-27T12:31:26Z</time>
      </trkpt>
      <trkpt lat="41.71601" lon="8.88805">
        <ele>316.89</ele>
        <time>2022-04-27T12:31:44Z</time>
      </trkpt>
      <trkpt lat="41.71606" lon="8.88822">
        <ele>316.41</ele>
        <time>2022-04-27T12:32:03Z</time>
      </trkpt>
      <trkpt lat="41.71613" lon="8.88832">
        <ele>315.93</ele>
        <time>2022-04-27T12:32:17Z</time>
      </trkpt>
      <trkpt lat="41.71626" lon="8.8885">
        <ele>315.45</ele>
        <time>2022-04-27T12:32:36Z</time>
      </trkpt>
      <trkpt lat="41.71635" lon="8.88863">
        <ele>315.45</ele>
        <time>2022-04-27T12:32:53Z</time>
      </trkpt>
      <trkpt lat="41.71641" lon="8.88883">
        <ele>315.93</ele>
        <time>2022-04-27T12:33:16Z</time>
      </trkpt>
      <trkpt lat="41.71648" lon="8.88894">
        <ele>315.45</ele>
        <time>2022-04-27T12:33:31Z</time>
      </trkpt>
      <trkpt lat="41.71652" lon="8.88897">
        <ele>315.45</ele>
        <time>2022-04-27T12:33:35Z</time>
      </trkpt>
      <trkpt lat="41.71663" lon="8.88916">
        <ele>314.49</ele>
        <time>2022-04-27T12:33:54Z</time>
      </trkpt>
      <trkpt lat="41.71677" lon="8.88937">
        <ele>313.53</ele>
        <time>2022-04-27T12:34:16Z</time>
      </trkpt>
      <trkpt lat="41.71684" lon="8.88957">
        <ele>314.97</ele>
        <time>2022-04-27T12:34:32Z</time>
      </trkpt>
      <trkpt lat="41.71682" lon="8.8899">
        <ele>314.49</ele>
        <time>2022-04-27T12:34:52Z</time>
      </trkpt>
      <trkpt lat="41.71681" lon="8.89015">
        <ele>315.93</ele>
        <time>2022-04-27T12:35:09Z</time>
      </trkpt>
      <trkpt lat="41.71683" lon="8.89044">
        <ele>316.89</ele>
        <time>2022-04-27T12:35:29Z</time>
      </trkpt>
      <trkpt lat="41.71682" lon="8.8905">
        <ele>315.93</ele>
        <time>2022-04-27T12:35:46Z</time>
      </trkpt>
      <trkpt lat="41.71677" lon="8.8905">
        <ele>316.41</ele>
        <time>2022-04-27T12:36:11Z</time>
      </trkpt>
      <trkpt lat="41.71684" lon="8.89064">
        <ele>316.41</ele>
        <time>2022-04-27T12:36:33Z</time>
      </trkpt>
      <trkpt lat="41.71686" lon="8.89068">
        <ele>316.41</ele>
        <time>2022-04-27T12:36:56Z</time>
      </trkpt>
      <trkpt lat="41.71682" lon="8.89071">
        <ele>316.41</ele>
        <time>2022-04-27T12:37:17Z</time>
      </trkpt>
      <trkpt lat="41.71683" lon="8.89072">
        <ele>314.97</ele>
        <time>2022-04-27T12:37:28Z</time>
      </trkpt>
      <trkpt lat="41.71683" lon="8.89067">
        <ele>315.93</ele>
        <time>2022-04-27T12:37:45Z</time>
      </trkpt>
      <trkpt lat="41.71685" lon="8.89066">
        <ele>315.93</ele>
        <time>2022-04-27T12:38:23Z</time>
      </trkpt>
      <trkpt lat="41.71682" lon="8.89069">
        <ele>315.45</ele>
        <time>2022-04-27T12:39:02Z</time>
      </trkpt>
      <trkpt lat="41.71684" lon="8.89077">
        <ele>316.41</ele>
        <time>2022-04-27T12:39:26Z</time>
      </trkpt>
      <trkpt lat="41.71684" lon="8.89089">
        <ele>315.45</ele>
        <time>2022-04-27T12:39:42Z</time>
      </trkpt>
      <trkpt lat="41.71679" lon="8.89108">
        <ele>313.05</ele>
        <time>2022-04-27T12:40:02Z</time>
      </trkpt>
      <trkpt lat="41.71678" lon="8.8913">
        <ele>312.09</ele>
        <time>2022-04-27T12:40:19Z</time>
      </trkpt>
      <trkpt lat="41.7167" lon="8.89138">
        <ele>309.68</ele>
        <time>2022-04-27T12:40:36Z</time>
      </trkpt>
      <trkpt lat="41.71665" lon="8.89154">
        <ele>309.2</ele>
        <time>2022-04-27T12:40:52Z</time>
      </trkpt>
      <trkpt lat="41.71669" lon="8.8917">
        <ele>307.76</ele>
        <time>2022-04-27T12:41:06Z</time>
      </trkpt>
      <trkpt lat="41.71677" lon="8.89192">
        <ele>307.28</ele>
        <time>2022-04-27T12:41:23Z</time>
      </trkpt>
      <trkpt lat="41.71683" lon="8.89215">
        <ele>306.8</ele>
        <time>2022-04-27T12:41:40Z</time>
      </trkpt>
      <trkpt lat="41.71687" lon="8.89237">
        <ele>308.24</ele>
        <time>2022-04-27T12:41:58Z</time>
      </trkpt>
      <trkpt lat="41.71689" lon="8.89261">
        <ele>309.68</ele>
        <time>2022-04-27T12:42:17Z</time>
      </trkpt>
      <trkpt lat="41.71695" lon="8.8928">
        <ele>312.09</ele>
        <time>2022-04-27T12:42:38Z</time>
      </trkpt>
      <trkpt lat="41.717" lon="8.89301">
        <ele>315.45</ele>
        <time>2022-04-27T12:42:58Z</time>
      </trkpt>
      <trkpt lat="41.71702" lon="8.89319">
        <ele>317.37</ele>
        <time>2022-04-27T12:43:17Z</time>
      </trkpt>
      <trkpt lat="41.71701" lon="8.89339">
        <ele>318.33</ele>
        <time>2022-04-27T12:43:33Z</time>
      </trkpt>
      <trkpt lat="41.71699" lon="8.89357">
        <ele>317.37</ele>
        <time>2022-04-27T12:43:50Z</time>
      </trkpt>
      <trkpt lat="41.71696" lon="8.89385">
        <ele>315.93</ele>
        <time>2022-04-27T12:44:08Z</time>
      </trkpt>
      <trkpt lat="41.71696" lon="8.89411">
        <ele>316.41</ele>
        <time>2022-04-27T12:44:28Z</time>
      </trkpt>
      <trkpt lat="41.71697" lon="8.89429">
        <ele>317.85</ele>
        <time>2022-04-27T12:44:45Z</time>
      </trkpt>
      <trkpt lat="41.71707" lon="8.89459">
        <ele>319.3</ele>
        <time>2022-04-27T12:45:04Z</time>
      </trkpt>
      <trkpt lat="41.71714" lon="8.89491">
        <ele>320.74</ele>
        <time>2022-04-27T12:45:26Z</time>
      </trkpt>
      <trkpt lat="41.71713" lon="8.89509">
        <ele>321.22</ele>
        <time>2022-04-27T12:45:45Z</time>
      </trkpt>
      <trkpt lat="41.71704" lon="8.89521">
        <ele>323.14</ele>
        <time>2022-04-27T12:46:02Z</time>
      </trkpt>
      <trkpt lat="41.71685" lon="8.89529">
        <ele>326.02</ele>
        <time>2022-04-27T12:46:26Z</time>
      </trkpt>
      <trkpt lat="41.71684" lon="8.8953">
        <ele>326.5</ele>
        <time>2022-04-27T12:46:27Z</time>
      </trkpt>
      <trkpt lat="41.71664" lon="8.89555">
        <ele>328.43</ele>
        <time>2022-04-27T12:46:50Z</time>
      </trkpt>
      <trkpt lat="41.7165" lon="8.89574">
        <ele>328.91</ele>
        <time>2022-04-27T12:47:07Z</time>
      </trkpt>
      <trkpt lat="41.71639" lon="8.89588">
        <ele>329.39</ele>
        <time>2022-04-27T12:47:25Z</time>
      </trkpt>
      <trkpt lat="41.71629" lon="8.896">
        <ele>330.83</ele>
        <time>2022-04-27T12:47:46Z</time>
      </trkpt>
      <trkpt lat="41.7161" lon="8.89618">
        <ele>333.23</ele>
        <time>2022-04-27T12:48:07Z</time>
      </trkpt>
      <trkpt lat="41.71589" lon="8.89634">
        <ele>336.12</ele>
        <time>2022-04-27T12:48:25Z</time>
      </trkpt>
      <trkpt lat="41.71563" lon="8.89647">
        <ele>335.64</ele>
        <time>2022-04-27T12:48:45Z</time>
      </trkpt>
      <trkpt lat="41.71562" lon="8.89648">
        <ele>335.16</ele>
        <time>2022-04-27T12:48:46Z</time>
      </trkpt>
      <trkpt lat="41.71543" lon="8.89661">
        <ele>335.64</ele>
        <time>2022-04-27T12:49:02Z</time>
      </trkpt>
      <trkpt lat="41.71539" lon="8.89661">
        <ele>337.08</ele>
        <time>2022-04-27T12:49:05Z</time>
      </trkpt>
      <trkpt lat="41.71522" lon="8.89664">
        <ele>339</ele>
        <time>2022-04-27T12:49:24Z</time>
      </trkpt>
      <trkpt lat="41.71513" lon="8.89654">
        <ele>342.37</ele>
        <time>2022-04-27T12:49:39Z</time>
      </trkpt>
      <trkpt lat="41.71501" lon="8.89654">
        <ele>345.25</ele>
        <time>2022-04-27T12:49:54Z</time>
      </trkpt>
      <trkpt lat="41.7149" lon="8.89656">
        <ele>348.13</ele>
        <time>2022-04-27T12:50:13Z</time>
      </trkpt>
      <trkpt lat="41.71478" lon="8.8966">
        <ele>351.02</ele>
        <time>2022-04-27T12:50:30Z</time>
      </trkpt>
      <trkpt lat="41.71458" lon="8.89663">
        <ele>352.94</ele>
        <time>2022-04-27T12:50:47Z</time>
      </trkpt>
      <trkpt lat="41.71439" lon="8.8966">
        <ele>355.83</ele>
        <time>2022-04-27T12:51:05Z</time>
      </trkpt>
      <trkpt lat="41.71419" lon="8.89651">
        <ele>357.75</ele>
        <time>2022-04-27T12:51:24Z</time>
      </trkpt>
      <trkpt lat="41.71402" lon="8.89648">
        <ele>360.15</ele>
        <time>2022-04-27T12:51:40Z</time>
      </trkpt>
      <trkpt lat="41.71386" lon="8.89644">
        <ele>363.04</ele>
        <time>2022-04-27T12:51:59Z</time>
      </trkpt>
      <trkpt lat="41.71361" lon="8.8964">
        <ele>365.92</ele>
        <time>2022-04-27T12:52:20Z</time>
      </trkpt>
      <trkpt lat="41.71348" lon="8.89634">
        <ele>369.28</ele>
        <time>2022-04-27T12:52:35Z</time>
      </trkpt>
      <trkpt lat="41.7133" lon="8.89625">
        <ele>371.69</ele>
        <time>2022-04-27T12:52:57Z</time>
      </trkpt>
      <trkpt lat="41.71314" lon="8.89617">
        <ele>374.57</ele>
        <time>2022-04-27T12:53:15Z</time>
      </trkpt>
      <trkpt lat="41.713" lon="8.89611">
        <ele>377.94</ele>
        <time>2022-04-27T12:53:29Z</time>
      </trkpt>
      <trkpt lat="41.71292" lon="8.89609">
        <ele>381.3</ele>
        <time>2022-04-27T12:53:45Z</time>
      </trkpt>
      <trkpt lat="41.71278" lon="8.896">
        <ele>380.34</ele>
        <time>2022-04-27T12:54:02Z</time>
      </trkpt>
      <trkpt lat="41.71263" lon="8.89602">
        <ele>379.38</ele>
        <time>2022-04-27T12:54:19Z</time>
      </trkpt>
      <trkpt lat="41.71246" lon="8.89603">
        <ele>379.86</ele>
        <time>2022-04-27T12:54:41Z</time>
      </trkpt>
      <trkpt lat="41.71234" lon="8.89609">
        <ele>380.82</ele>
        <time>2022-04-27T12:55:02Z</time>
      </trkpt>
      <trkpt lat="41.71223" lon="8.89602">
        <ele>380.34</ele>
        <time>2022-04-27T12:55:18Z</time>
      </trkpt>
      <trkpt lat="41.7121" lon="8.89601">
        <ele>379.38</ele>
        <time>2022-04-27T12:55:35Z</time>
      </trkpt>
      <trkpt lat="41.71198" lon="8.89607">
        <ele>378.9</ele>
        <time>2022-04-27T12:55:56Z</time>
      </trkpt>
      <trkpt lat="41.71179" lon="8.89606">
        <ele>376.97</ele>
        <time>2022-04-27T12:56:18Z</time>
      </trkpt>
      <trkpt lat="41.71161" lon="8.89604">
        <ele>375.05</ele>
        <time>2022-04-27T12:56:38Z</time>
      </trkpt>
      <trkpt lat="41.71142" lon="8.89599">
        <ele>374.09</ele>
        <time>2022-04-27T12:56:58Z</time>
      </trkpt>
      <trkpt lat="41.71122" lon="8.89595">
        <ele>372.65</ele>
        <time>2022-04-27T12:57:15Z</time>
      </trkpt>
      <trkpt lat="41.71108" lon="8.89588">
        <ele>371.21</ele>
        <time>2022-04-27T12:57:36Z</time>
      </trkpt>
      <trkpt lat="41.71093" lon="8.89601">
        <ele>367.84</ele>
        <time>2022-04-27T12:57:53Z</time>
      </trkpt>
      <trkpt lat="41.71081" lon="8.89616">
        <ele>365.44</ele>
        <time>2022-04-27T12:58:09Z</time>
      </trkpt>
      <trkpt lat="41.71073" lon="8.89636">
        <ele>365.44</ele>
        <time>2022-04-27T12:58:25Z</time>
      </trkpt>
      <trkpt lat="41.7106" lon="8.89664">
        <ele>364.96</ele>
        <time>2022-04-27T12:58:42Z</time>
      </trkpt>
      <trkpt lat="41.71049" lon="8.89684">
        <ele>365.44</ele>
        <time>2022-04-27T12:58:59Z</time>
      </trkpt>
      <trkpt lat="41.71036" lon="8.89696">
        <ele>365.92</ele>
        <time>2022-04-27T12:59:17Z</time>
      </trkpt>
      <trkpt lat="41.71022" lon="8.89718">
        <ele>368.32</ele>
        <time>2022-04-27T12:59:37Z</time>
      </trkpt>
      <trkpt lat="41.7101" lon="8.89726">
        <ele>370.24</ele>
        <time>2022-04-27T12:59:53Z</time>
      </trkpt>
      <trkpt lat="41.70993" lon="8.89739">
        <ele>373.13</ele>
        <time>2022-04-27T13:00:12Z</time>
      </trkpt>
      <trkpt lat="41.70981" lon="8.89751">
        <ele>376.49</ele>
        <time>2022-04-27T13:00:29Z</time>
      </trkpt>
      <trkpt lat="41.70966" lon="8.89756">
        <ele>376.49</ele>
        <time>2022-04-27T13:00:48Z</time>
      </trkpt>
      <trkpt lat="41.7095" lon="8.8976">
        <ele>377.94</ele>
        <time>2022-04-27T13:01:05Z</time>
      </trkpt>
      <trkpt lat="41.70945" lon="8.89759">
        <ele>377.45</ele>
        <time>2022-04-27T13:01:38Z</time>
      </trkpt>
      <trkpt lat="41.70935" lon="8.89764">
        <ele>377.94</ele>
        <time>2022-04-27T13:02:03Z</time>
      </trkpt>
      <trkpt lat="41.70934" lon="8.89766">
        <ele>377.94</ele>
        <time>2022-04-27T13:02:28Z</time>
      </trkpt>
      <trkpt lat="41.70935" lon="8.89773">
        <ele>377.94</ele>
        <time>2022-04-27T13:02:53Z</time>
      </trkpt>
      <trkpt lat="41.70934" lon="8.89772">
        <ele>379.38</ele>
        <time>2022-04-27T13:03:08Z</time>
      </trkpt>
      <trkpt lat="41.70934" lon="8.89772">
        <ele>377.94</ele>
        <time>2022-04-27T13:03:09Z</time>
      </trkpt>
      <trkpt lat="41.70929" lon="8.89768">
        <ele>377.94</ele>
        <time>2022-04-27T13:03:47Z</time>
      </trkpt>
      <trkpt lat="41.70933" lon="8.89774">
        <ele>377.94</ele>
        <time>2022-04-27T13:04:19Z</time>
      </trkpt>
      <trkpt lat="41.70928" lon="8.89767">
        <ele>378.42</ele>
        <time>2022-04-27T13:05:01Z</time>
      </trkpt>
      <trkpt lat="41.70929" lon="8.89765">
        <ele>378.42</ele>
        <time>2022-04-27T13:05:37Z</time>
      </trkpt>
      <trkpt lat="41.7093" lon="8.8977">
        <ele>378.9</ele>
        <time>2022-04-27T13:06:17Z</time>
      </trkpt>
      <trkpt lat="41.70927" lon="8.89768">
        <ele>378.42</ele>
        <time>2022-04-27T13:06:57Z</time>
      </trkpt>
      <trkpt lat="41.7093" lon="8.89769">
        <ele>379.86</ele>
        <time>2022-04-27T13:07:43Z</time>
      </trkpt>
      <trkpt lat="41.70926" lon="8.89766">
        <ele>379.38</ele>
        <time>2022-04-27T13:08:17Z</time>
      </trkpt>
      <trkpt lat="41.70922" lon="8.89769">
        <ele>380.34</ele>
        <time>2022-04-27T13:08:57Z</time>
      </trkpt>
      <trkpt lat="41.70923" lon="8.89765">
        <ele>380.34</ele>
        <time>2022-04-27T13:09:36Z</time>
      </trkpt>
      <trkpt lat="41.70927" lon="8.89768">
        <ele>380.82</ele>
        <time>2022-04-27T13:10:25Z</time>
      </trkpt>
      <trkpt lat="41.70927" lon="8.8977">
        <ele>381.3</ele>
        <time>2022-04-27T13:10:56Z</time>
      </trkpt>
      <trkpt lat="41.70923" lon="8.89768">
        <ele>381.3</ele>
        <time>2022-04-27T13:11:19Z</time>
      </trkpt>
      <trkpt lat="41.70924" lon="8.89765">
        <ele>381.78</ele>
        <time>2022-04-27T13:11:51Z</time>
      </trkpt>
      <trkpt lat="41.70926" lon="8.89766">
        <ele>382.26</ele>
        <time>2022-04-27T13:12:30Z</time>
      </trkpt>
      <trkpt lat="41.70925" lon="8.89773">
        <ele>383.22</ele>
        <time>2022-04-27T13:12:51Z</time>
      </trkpt>
      <trkpt lat="41.70923" lon="8.89788">
        <ele>386.59</ele>
        <time>2022-04-27T13:13:08Z</time>
      </trkpt>
      <trkpt lat="41.70921" lon="8.89795">
        <ele>389.47</ele>
        <time>2022-04-27T13:13:23Z</time>
      </trkpt>
      <trkpt lat="41.70917" lon="8.89802">
        <ele>390.91</ele>
        <time>2022-04-27T13:13:30Z</time>
      </trkpt>
      <trkpt lat="41.70915" lon="8.89814">
        <ele>392.36</ele>
        <time>2022-04-27T13:13:46Z</time>
      </trkpt>
      <trkpt lat="41.7091" lon="8.89833">
        <ele>394.76</ele>
        <time>2022-04-27T13:14:06Z</time>
      </trkpt>
      <trkpt lat="41.70907" lon="8.89851">
        <ele>396.2</ele>
        <time>2022-04-27T13:14:22Z</time>
      </trkpt>
      <trkpt lat="41.709" lon="8.89872">
        <ele>397.16</ele>
        <time>2022-04-27T13:14:40Z</time>
      </trkpt>
      <trkpt lat="41.709" lon="8.89873">
        <ele>398.12</ele>
        <time>2022-04-27T13:14:57Z</time>
      </trkpt>
      <trkpt lat="41.709" lon="8.89882">
        <ele>399.08</ele>
        <time>2022-04-27T13:15:15Z</time>
      </trkpt>
      <trkpt lat="41.709" lon="8.89896">
        <ele>402.45</ele>
        <time>2022-04-27T13:15:30Z</time>
      </trkpt>
      <trkpt lat="41.70895" lon="8.89915">
        <ele>404.85</ele>
        <time>2022-04-27T13:15:48Z</time>
      </trkpt>
      <trkpt lat="41.7088" lon="8.89929">
        <ele>405.33</ele>
        <time>2022-04-27T13:16:06Z</time>
      </trkpt>
      <trkpt lat="41.70877" lon="8.89945">
        <ele>407.74</ele>
        <time>2022-04-27T13:16:22Z</time>
      </trkpt>
      <trkpt lat="41.70867" lon="8.89963">
        <ele>410.62</ele>
        <time>2022-04-27T13:16:42Z</time>
      </trkpt>
      <trkpt lat="41.70859" lon="8.89974">
        <ele>413.98</ele>
        <time>2022-04-27T13:16:58Z</time>
      </trkpt>
      <trkpt lat="41.7086" lon="8.89992">
        <ele>414.95</ele>
        <time>2022-04-27T13:17:12Z</time>
      </trkpt>
      <trkpt lat="41.70859" lon="8.90013">
        <ele>415.91</ele>
        <time>2022-04-27T13:17:29Z</time>
      </trkpt>
      <trkpt lat="41.7085" lon="8.90035">
        <ele>415.43</ele>
        <time>2022-04-27T13:17:47Z</time>
      </trkpt>
      <trkpt lat="41.70844" lon="8.90058">
        <ele>413.98</ele>
        <time>2022-04-27T13:18:05Z</time>
      </trkpt>
      <trkpt lat="41.70842" lon="8.90065">
        <ele>413.98</ele>
        <time>2022-04-27T13:18:27Z</time>
      </trkpt>
      <trkpt lat="41.70839" lon="8.9008">
        <ele>413.02</ele>
        <time>2022-04-27T13:18:43Z</time>
      </trkpt>
      <trkpt lat="41.70839" lon="8.90103">
        <ele>412.06</ele>
        <time>2022-04-27T13:19:01Z</time>
      </trkpt>
      <trkpt lat="41.70843" lon="8.90125">
        <ele>409.66</ele>
        <time>2022-04-27T13:19:17Z</time>
      </trkpt>
      <trkpt lat="41.70838" lon="8.90134">
        <ele>406.29</ele>
        <time>2022-04-27T13:19:30Z</time>
      </trkpt>
      <trkpt lat="41.7084" lon="8.90159">
        <ele>405.33</ele>
        <time>2022-04-27T13:19:47Z</time>
      </trkpt>
      <trkpt lat="41.70837" lon="8.90164">
        <ele>403.89</ele>
        <time>2022-04-27T13:19:54Z</time>
      </trkpt>
      <trkpt lat="41.70833" lon="8.90169">
        <ele>401.97</ele>
        <time>2022-04-27T13:20:08Z</time>
      </trkpt>
      <trkpt lat="41.70827" lon="8.9018">
        <ele>399.08</ele>
        <time>2022-04-27T13:20:24Z</time>
      </trkpt>
      <trkpt lat="41.7082" lon="8.90183">
        <ele>395.72</ele>
        <time>2022-04-27T13:20:39Z</time>
      </trkpt>
      <trkpt lat="41.70817" lon="8.90183">
        <ele>394.76</ele>
        <time>2022-04-27T13:20:58Z</time>
      </trkpt>
      <trkpt lat="41.70814" lon="8.90188">
        <ele>393.32</ele>
        <time>2022-04-27T13:21:16Z</time>
      </trkpt>
      <trkpt lat="41.70809" lon="8.90188">
        <ele>389.95</ele>
        <time>2022-04-27T13:21:29Z</time>
      </trkpt>
      <trkpt lat="41.70802" lon="8.90187">
        <ele>388.03</ele>
        <time>2022-04-27T13:21:43Z</time>
      </trkpt>
      <trkpt lat="41.70799" lon="8.90208">
        <ele>385.15</ele>
        <time>2022-04-27T13:22:02Z</time>
      </trkpt>
      <trkpt lat="41.70797" lon="8.90228">
        <ele>384.18</ele>
        <time>2022-04-27T13:22:18Z</time>
      </trkpt>
      <trkpt lat="41.70792" lon="8.90252">
        <ele>380.82</ele>
        <time>2022-04-27T13:22:37Z</time>
      </trkpt>
      <trkpt lat="41.70786" lon="8.90274">
        <ele>379.38</ele>
        <time>2022-04-27T13:22:53Z</time>
      </trkpt>
      <trkpt lat="41.70783" lon="8.90298">
        <ele>378.9</ele>
        <time>2022-04-27T13:23:12Z</time>
      </trkpt>
      <trkpt lat="41.70777" lon="8.90312">
        <ele>375.53</ele>
        <time>2022-04-27T13:23:30Z</time>
      </trkpt>
      <trkpt lat="41.70768" lon="8.90328">
        <ele>373.61</ele>
        <time>2022-04-27T13:23:50Z</time>
      </trkpt>
      <trkpt lat="41.7076" lon="8.90338">
        <ele>370.24</ele>
        <time>2022-04-27T13:24:09Z</time>
      </trkpt>
      <trkpt lat="41.70757" lon="8.90354">
        <ele>369.28</ele>
        <time>2022-04-27T13:24:28Z</time>
      </trkpt>
      <trkpt lat="41.70747" lon="8.90372">
        <ele>367.36</ele>
        <time>2022-04-27T13:24:46Z</time>
      </trkpt>
      <trkpt lat="41.70742" lon="8.90392">
        <ele>364.96</ele>
        <time>2022-04-27T13:25:03Z</time>
      </trkpt>
      <trkpt lat="41.70734" lon="8.90417">
        <ele>363.52</ele>
        <time>2022-04-27T13:25:20Z</time>
      </trkpt>
      <trkpt lat="41.70725" lon="8.90441">
        <ele>362.55</ele>
        <time>2022-04-27T13:25:37Z</time>
      </trkpt>
      <trkpt lat="41.70713" lon="8.90462">
        <ele>362.55</ele>
        <time>2022-04-27T13:25:56Z</time>
      </trkpt>
      <trkpt lat="41.70708" lon="8.90477">
        <ele>363.52</ele>
        <time>2022-04-27T13:26:11Z</time>
      </trkpt>
      <trkpt lat="41.70702" lon="8.90481">
        <ele>365.44</ele>
        <time>2022-04-27T13:26:28Z</time>
      </trkpt>
      <trkpt lat="41.70702" lon="8.90485">
        <ele>366.4</ele>
        <time>2022-04-27T13:26:59Z</time>
      </trkpt>
      <trkpt lat="41.707" lon="8.90491">
        <ele>366.88</ele>
        <time>2022-04-27T13:27:26Z</time>
      </trkpt>
      <trkpt lat="41.70701" lon="8.90506">
        <ele>368.8</ele>
        <time>2022-04-27T13:27:44Z</time>
      </trkpt>
      <trkpt lat="41.70693" lon="8.90518">
        <ele>370.24</ele>
        <time>2022-04-27T13:27:59Z</time>
      </trkpt>
      <trkpt lat="41.70684" lon="8.90536">
        <ele>371.69</ele>
        <time>2022-04-27T13:28:17Z</time>
      </trkpt>
      <trkpt lat="41.70675" lon="8.9056">
        <ele>372.17</ele>
        <time>2022-04-27T13:28:35Z</time>
      </trkpt>
      <trkpt lat="41.70669" lon="8.90585">
        <ele>371.69</ele>
        <time>2022-04-27T13:28:54Z</time>
      </trkpt>
      <trkpt lat="41.70662" lon="8.90607">
        <ele>371.21</ele>
        <time>2022-04-27T13:29:08Z</time>
      </trkpt>
      <trkpt lat="41.70657" lon="8.90627">
        <ele>371.21</ele>
        <time>2022-04-27T13:29:22Z</time>
      </trkpt>
      <trkpt lat="41.70647" lon="8.90646">
        <ele>371.69</ele>
        <time>2022-04-27T13:29:39Z</time>
      </trkpt>
      <trkpt lat="41.70638" lon="8.90669">
        <ele>371.69</ele>
        <time>2022-04-27T13:29:57Z</time>
      </trkpt>
      <trkpt lat="41.70633" lon="8.90687">
        <ele>372.65</ele>
        <time>2022-04-27T13:30:11Z</time>
      </trkpt>
      <trkpt lat="41.70623" lon="8.90712">
        <ele>373.13</ele>
        <time>2022-04-27T13:30:30Z</time>
      </trkpt>
      <trkpt lat="41.70618" lon="8.90725">
        <ele>374.57</ele>
        <time>2022-04-27T13:30:49Z</time>
      </trkpt>
      <trkpt lat="41.70619" lon="8.90725">
        <ele>373.61</ele>
        <time>2022-04-27T13:31:05Z</time>
      </trkpt>
      <trkpt lat="41.70617" lon="8.90724">
        <ele>373.61</ele>
        <time>2022-04-27T13:31:29Z</time>
      </trkpt>
      <trkpt lat="41.70622" lon="8.90721">
        <ele>374.09</ele>
        <time>2022-04-27T13:31:57Z</time>
      </trkpt>
      <trkpt lat="41.70618" lon="8.90717">
        <ele>373.61</ele>
        <time>2022-04-27T13:32:24Z</time>
      </trkpt>
      <trkpt lat="41.7062" lon="8.90715">
        <ele>373.61</ele>
        <time>2022-04-27T13:32:51Z</time>
      </trkpt>
      <trkpt lat="41.70625" lon="8.90719">
        <ele>374.09</ele>
        <time>2022-04-27T13:33:17Z</time>
      </trkpt>
      <trkpt lat="41.70622" lon="8.90721">
        <ele>374.09</ele>
        <time>2022-04-27T13:33:40Z</time>
      </trkpt>
      <trkpt lat="41.70616" lon="8.90724">
        <ele>374.57</ele>
        <time>2022-04-27T13:33:59Z</time>
      </trkpt>
      <trkpt lat="41.70617" lon="8.90729">
        <ele>375.53</ele>
        <time>2022-04-27T13:34:42Z</time>
      </trkpt>
      <trkpt lat="41.70618" lon="8.90724">
        <ele>374.57</ele>
        <time>2022-04-27T13:35:26Z</time>
      </trkpt>
      <trkpt lat="41.70616" lon="8.90729">
        <ele>374.57</ele>
        <time>2022-04-27T13:36:09Z</time>
      </trkpt>
      <trkpt lat="41.70615" lon="8.90726">
        <ele>375.05</ele>
        <time>2022-04-27T13:36:27Z</time>
      </trkpt>
      <trkpt lat="41.70613" lon="8.90743">
        <ele>376.97</ele>
        <time>2022-04-27T13:36:46Z</time>
      </trkpt>
      <trkpt lat="41.70612" lon="8.90758">
        <ele>379.38</ele>
        <time>2022-04-27T13:37:03Z</time>
      </trkpt>
      <trkpt lat="41.70611" lon="8.90754">
        <ele>379.38</ele>
        <time>2022-04-27T13:37:24Z</time>
      </trkpt>
      <trkpt lat="41.70613" lon="8.9076">
        <ele>380.34</ele>
        <time>2022-04-27T13:37:56Z</time>
      </trkpt>
      <trkpt lat="41.70605" lon="8.9078">
        <ele>379.86</ele>
        <time>2022-04-27T13:38:12Z</time>
      </trkpt>
      <trkpt lat="41.70604" lon="8.90783">
        <ele>379.86</ele>
        <time>2022-04-27T13:38:14Z</time>
      </trkpt>
      <trkpt lat="41.70607" lon="8.90808">
        <ele>379.86</ele>
        <time>2022-04-27T13:38:32Z</time>
      </trkpt>
      <trkpt lat="41.70608" lon="8.90829">
        <ele>379.86</ele>
        <time>2022-04-27T13:38:47Z</time>
      </trkpt>
      <trkpt lat="41.70614" lon="8.9085">
        <ele>378.42</ele>
        <time>2022-04-27T13:39:07Z</time>
      </trkpt>
      <trkpt lat="41.70621" lon="8.90867">
        <ele>376.97</ele>
        <time>2022-04-27T13:39:22Z</time>
      </trkpt>
      <trkpt lat="41.70626" lon="8.90875">
        <ele>376.01</ele>
        <time>2022-04-27T13:39:32Z</time>
      </trkpt>
      <trkpt lat="41.70634" lon="8.90886">
        <ele>374.57</ele>
        <time>2022-04-27T13:39:43Z</time>
      </trkpt>
      <trkpt lat="41.70643" lon="8.90898">
        <ele>373.61</ele>
        <time>2022-04-27T13:39:58Z</time>
      </trkpt>
      <trkpt lat="41.70644" lon="8.90901">
        <ele>373.13</ele>
        <time>2022-04-27T13:40:14Z</time>
      </trkpt>
      <trkpt lat="41.70653" lon="8.9091">
        <ele>372.17</ele>
        <time>2022-04-27T13:40:32Z</time>
      </trkpt>
      <trkpt lat="41.70659" lon="8.90919">
        <ele>371.69</ele>
        <time>2022-04-27T13:40:44Z</time>
      </trkpt>
      <trkpt lat="41.70655" lon="8.90926">
        <ele>372.17</ele>
        <time>2022-04-27T13:41:04Z</time>
      </trkpt>
      <trkpt lat="41.70656" lon="8.90925">
        <ele>372.17</ele>
        <time>2022-04-27T13:41:27Z</time>
      </trkpt>
      <trkpt lat="41.70653" lon="8.90924">
        <ele>371.69</ele>
        <time>2022-04-27T13:41:49Z</time>
      </trkpt>
      <trkpt lat="41.70662" lon="8.90922">
        <ele>372.17</ele>
        <time>2022-04-27T13:42:11Z</time>
      </trkpt>
      <trkpt lat="41.70674" lon="8.90928">
        <ele>371.69</ele>
        <time>2022-04-27T13:42:27Z</time>
      </trkpt>
      <trkpt lat="41.70692" lon="8.90935">
        <ele>371.69</ele>
        <time>2022-04-27T13:42:45Z</time>
      </trkpt>
      <trkpt lat="41.70701" lon="8.90938">
        <ele>371.21</ele>
        <time>2022-04-27T13:42:58Z</time>
      </trkpt>
      <trkpt lat="41.70726" lon="8.90947">
        <ele>369.76</ele>
        <time>2022-04-27T13:43:21Z</time>
      </trkpt>
      <trkpt lat="41.70744" lon="8.90952">
        <ele>368.8</ele>
        <time>2022-04-27T13:43:39Z</time>
      </trkpt>
      <trkpt lat="41.70747" lon="8.90952">
        <ele>368.8</ele>
        <time>2022-04-27T13:43:41Z</time>
      </trkpt>
      <trkpt lat="41.70755" lon="8.9095">
        <ele>367.36</ele>
        <time>2022-04-27T13:44:00Z</time>
      </trkpt>
      <trkpt lat="41.70772" lon="8.9096">
        <ele>366.4</ele>
        <time>2022-04-27T13:44:20Z</time>
      </trkpt>
      <trkpt lat="41.70786" lon="8.90969">
        <ele>365.92</ele>
        <time>2022-04-27T13:44:36Z</time>
      </trkpt>
      <trkpt lat="41.708" lon="8.90984">
        <ele>365.44</ele>
        <time>2022-04-27T13:44:54Z</time>
      </trkpt>
      <trkpt lat="41.70818" lon="8.91008">
        <ele>365.44</ele>
        <time>2022-04-27T13:45:17Z</time>
      </trkpt>
      <trkpt lat="41.70819" lon="8.91009">
        <ele>364.96</ele>
        <time>2022-04-27T13:45:18Z</time>
      </trkpt>
      <trkpt lat="41.70833" lon="8.91035">
        <ele>364</ele>
        <time>2022-04-27T13:45:38Z</time>
      </trkpt>
      <trkpt lat="41.70847" lon="8.91062">
        <ele>363.52</ele>
        <time>2022-04-27T13:45:59Z</time>
      </trkpt>
      <trkpt lat="41.70859" lon="8.91083">
        <ele>363.52</ele>
        <time>2022-04-27T13:46:18Z</time>
      </trkpt>
      <trkpt lat="41.70862" lon="8.91101">
        <ele>363.04</ele>
        <time>2022-04-27T13:46:34Z</time>
      </trkpt>
      <trkpt lat="41.70863" lon="8.91108">
        <ele>363.04</ele>
        <time>2022-04-27T13:46:51Z</time>
      </trkpt>
      <trkpt lat="41.70861" lon="8.91108">
        <ele>362.55</ele>
        <time>2022-04-27T13:47:09Z</time>
      </trkpt>
      <trkpt lat="41.70862" lon="8.91106">
        <ele>362.55</ele>
        <time>2022-04-27T13:47:35Z</time>
      </trkpt>
      <trkpt lat="41.70859" lon="8.91111">
        <ele>362.55</ele>
        <time>2022-04-27T13:48:10Z</time>
      </trkpt>
      <trkpt lat="41.70863" lon="8.91114">
        <ele>363.04</ele>
        <time>2022-04-27T13:48:41Z</time>
      </trkpt>
      <trkpt lat="41.70859" lon="8.91107">
        <ele>363.04</ele>
        <time>2022-04-27T13:49:06Z</time>
      </trkpt>
      <trkpt lat="41.70859" lon="8.91108">
        <ele>363.04</ele>
        <time>2022-04-27T13:49:39Z</time>
      </trkpt>
      <trkpt lat="41.70866" lon="8.91113">
        <ele>364</ele>
        <time>2022-04-27T13:49:58Z</time>
      </trkpt>
      <trkpt lat="41.70877" lon="8.91127">
        <ele>363.52</ele>
        <time>2022-04-27T13:50:15Z</time>
      </trkpt>
      <trkpt lat="41.70884" lon="8.91147">
        <ele>364.48</ele>
        <time>2022-04-27T13:50:30Z</time>
      </trkpt>
      <trkpt lat="41.70892" lon="8.91169">
        <ele>364.96</ele>
        <time>2022-04-27T13:50:47Z</time>
      </trkpt>
      <trkpt lat="41.70895" lon="8.91178">
        <ele>364.96</ele>
        <time>2022-04-27T13:50:55Z</time>
      </trkpt>
      <trkpt lat="41.70896" lon="8.91185">
        <ele>364.96</ele>
        <time>2022-04-27T13:50:59Z</time>
      </trkpt>
      <trkpt lat="41.70896" lon="8.91213">
        <ele>365.92</ele>
        <time>2022-04-27T13:51:20Z</time>
      </trkpt>
      <trkpt lat="41.70896" lon="8.91239">
        <ele>366.88</ele>
        <time>2022-04-27T13:51:39Z</time>
      </trkpt>
      <trkpt lat="41.70894" lon="8.91263">
        <ele>368.32</ele>
        <time>2022-04-27T13:51:57Z</time>
      </trkpt>
      <trkpt lat="41.70892" lon="8.91288">
        <ele>369.28</ele>
        <time>2022-04-27T13:52:14Z</time>
      </trkpt>
      <trkpt lat="41.70897" lon="8.91309">
        <ele>370.73</ele>
        <time>2022-04-27T13:52:31Z</time>
      </trkpt>
      <trkpt lat="41.70902" lon="8.91326">
        <ele>372.65</ele>
        <time>2022-04-27T13:52:48Z</time>
      </trkpt>
      <trkpt lat="41.70905" lon="8.91334">
        <ele>373.13</ele>
        <time>2022-04-27T13:53:02Z</time>
      </trkpt>
      <trkpt lat="41.70908" lon="8.91336">
        <ele>373.61</ele>
        <time>2022-04-27T13:53:16Z</time>
      </trkpt>
      <trkpt lat="41.70925" lon="8.91341">
        <ele>375.05</ele>
        <time>2022-04-27T13:53:32Z</time>
      </trkpt>
      <trkpt lat="41.70944" lon="8.91343">
        <ele>375.05</ele>
        <time>2022-04-27T13:53:50Z</time>
      </trkpt>
      <trkpt lat="41.70964" lon="8.91336">
        <ele>375.05</ele>
        <time>2022-04-27T13:54:07Z</time>
      </trkpt>
      <trkpt lat="41.70984" lon="8.91335">
        <ele>374.09</ele>
        <time>2022-04-27T13:54:25Z</time>
      </trkpt>
      <trkpt lat="41.71003" lon="8.9134">
        <ele>372.65</ele>
        <time>2022-04-27T13:54:43Z</time>
      </trkpt>
      <trkpt lat="41.71017" lon="8.91343">
        <ele>371.21</ele>
        <time>2022-04-27T13:54:54Z</time>
      </trkpt>
      <trkpt lat="41.71038" lon="8.91349">
        <ele>370.24</ele>
        <time>2022-04-27T13:55:12Z</time>
      </trkpt>
      <trkpt lat="41.71052" lon="8.91358">
        <ele>369.76</ele>
        <time>2022-04-27T13:55:29Z</time>
      </trkpt>
      <trkpt lat="41.71067" lon="8.91364">
        <ele>367.84</ele>
        <time>2022-04-27T13:55:45Z</time>
      </trkpt>
      <trkpt lat="41.71084" lon="8.91364">
        <ele>365.92</ele>
        <time>2022-04-27T13:56:05Z</time>
      </trkpt>
      <trkpt lat="41.71087" lon="8.91366">
        <ele>365.44</ele>
        <time>2022-04-27T13:56:20Z</time>
      </trkpt>
      <trkpt lat="41.71101" lon="8.91375">
        <ele>363.52</ele>
        <time>2022-04-27T13:56:43Z</time>
      </trkpt>
      <trkpt lat="41.71103" lon="8.91379">
        <ele>364</ele>
        <time>2022-04-27T13:56:46Z</time>
      </trkpt>
      <trkpt lat="41.71122" lon="8.91392">
        <ele>361.59</ele>
        <time>2022-04-27T13:57:04Z</time>
      </trkpt>
      <trkpt lat="41.71141" lon="8.91402">
        <ele>359.67</ele>
        <time>2022-04-27T13:57:23Z</time>
      </trkpt>
      <trkpt lat="41.71161" lon="8.91402">
        <ele>358.23</ele>
        <time>2022-04-27T13:57:40Z</time>
      </trkpt>
      <trkpt lat="41.71167" lon="8.91401">
        <ele>358.23</ele>
        <time>2022-04-27T13:57:46Z</time>
      </trkpt>
      <trkpt lat="41.71191" lon="8.91394">
        <ele>357.27</ele>
        <time>2022-04-27T13:58:05Z</time>
      </trkpt>
      <trkpt lat="41.71201" lon="8.91398">
        <ele>355.83</ele>
        <time>2022-04-27T13:58:15Z</time>
      </trkpt>
      <trkpt lat="41.71222" lon="8.91409">
        <ele>352.94</ele>
        <time>2022-04-27T13:58:34Z</time>
      </trkpt>
      <trkpt lat="41.71245" lon="8.91422">
        <ele>349.58</ele>
        <time>2022-04-27T13:58:54Z</time>
      </trkpt>
      <trkpt lat="41.71254" lon="8.91434">
        <ele>347.17</ele>
        <time>2022-04-27T13:59:10Z</time>
      </trkpt>
      <trkpt lat="41.71252" lon="8.91433">
        <ele>345.73</ele>
        <time>2022-04-27T13:59:26Z</time>
      </trkpt>
      <trkpt lat="41.71255" lon="8.91438">
        <ele>343.81</ele>
        <time>2022-04-27T13:59:40Z</time>
      </trkpt>
      <trkpt lat="41.71262" lon="8.91441">
        <ele>342.85</ele>
        <time>2022-04-27T13:59:56Z</time>
      </trkpt>
      <trkpt lat="41.71253" lon="8.91432">
        <ele>344.77</ele>
        <time>2022-04-27T14:00:12Z</time>
      </trkpt>
      <trkpt lat="41.71254" lon="8.91426">
        <ele>347.65</ele>
        <time>2022-04-27T14:00:29Z</time>
      </trkpt>
      <trkpt lat="41.71266" lon="8.91426">
        <ele>347.17</ele>
        <time>2022-04-27T14:00:46Z</time>
      </trkpt>
      <trkpt lat="41.71271" lon="8.91428">
        <ele>345.73</ele>
        <time>2022-04-27T14:00:52Z</time>
      </trkpt>
      <trkpt lat="41.71283" lon="8.9143">
        <ele>345.73</ele>
        <time>2022-04-27T14:01:11Z</time>
      </trkpt>
      <trkpt lat="41.71282" lon="8.91431">
        <ele>345.73</ele>
        <time>2022-04-27T14:01:47Z</time>
      </trkpt>
      <trkpt lat="41.71281" lon="8.91432">
        <ele>345.25</ele>
        <time>2022-04-27T14:02:15Z</time>
      </trkpt>
      <trkpt lat="41.71283" lon="8.91429">
        <ele>345.73</ele>
        <time>2022-04-27T14:02:45Z</time>
      </trkpt>
      <trkpt lat="41.71299" lon="8.91427">
        <ele>344.77</ele>
        <time>2022-04-27T14:03:01Z</time>
      </trkpt>
      <trkpt lat="41.71305" lon="8.91424">
        <ele>344.29</ele>
        <time>2022-04-27T14:03:17Z</time>
      </trkpt>
      <trkpt lat="41.71312" lon="8.91426">
        <ele>343.81</ele>
        <time>2022-04-27T14:03:33Z</time>
      </trkpt>
      <trkpt lat="41.71331" lon="8.91426">
        <ele>343.81</ele>
        <time>2022-04-27T14:03:52Z</time>
      </trkpt>
      <trkpt lat="41.7134" lon="8.91429">
        <ele>343.81</ele>
        <time>2022-04-27T14:04:04Z</time>
      </trkpt>
      <trkpt lat="41.71349" lon="8.91442">
        <ele>342.85</ele>
        <time>2022-04-27T14:04:20Z</time>
      </trkpt>
      <trkpt lat="41.71357" lon="8.91456">
        <ele>342.85</ele>
        <time>2022-04-27T14:04:31Z</time>
      </trkpt>
      <trkpt lat="41.71369" lon="8.91477">
        <ele>341.41</ele>
        <time>2022-04-27T14:04:49Z</time>
      </trkpt>
      <trkpt lat="41.71383" lon="8.91496">
        <ele>338.04</ele>
        <time>2022-04-27T14:05:04Z</time>
      </trkpt>
      <trkpt lat="41.71389" lon="8.915">
        <ele>337.08</ele>
        <time>2022-04-27T14:05:09Z</time>
      </trkpt>
      <trkpt lat="41.71397" lon="8.91505">
        <ele>335.64</ele>
        <time>2022-04-27T14:05:23Z</time>
      </trkpt>
      <trkpt lat="41.71401" lon="8.91513">
        <ele>334.68</ele>
        <time>2022-04-27T14:05:39Z</time>
      </trkpt>
      <trkpt lat="41.71409" lon="8.91524">
        <ele>333.71</ele>
        <time>2022-04-27T14:05:48Z</time>
      </trkpt>
      <trkpt lat="41.71419" lon="8.91549">
        <ele>331.79</ele>
        <time>2022-04-27T14:06:06Z</time>
      </trkpt>
      <trkpt lat="41.71433" lon="8.91566">
        <ele>328.91</ele>
        <time>2022-04-27T14:06:24Z</time>
      </trkpt>
      <trkpt lat="41.7144" lon="8.91574">
        <ele>327.47</ele>
        <time>2022-04-27T14:06:40Z</time>
      </trkpt>
      <trkpt lat="41.7144" lon="8.91573">
        <ele>326.99</ele>
        <time>2022-04-27T14:06:52Z</time>
      </trkpt>
      <trkpt lat="41.71442" lon="8.9157">
        <ele>326.99</ele>
        <time>2022-04-27T14:07:06Z</time>
      </trkpt>
      <trkpt lat="41.71443" lon="8.91572">
        <ele>326.99</ele>
        <time>2022-04-27T14:07:24Z</time>
      </trkpt>
      <trkpt lat="41.71445" lon="8.91568">
        <ele>326.5</ele>
        <time>2022-04-27T14:07:54Z</time>
      </trkpt>
      <trkpt lat="41.71446" lon="8.91561">
        <ele>326.02</ele>
        <time>2022-04-27T14:08:08Z</time>
      </trkpt>
      <trkpt lat="41.71448" lon="8.91557">
        <ele>324.58</ele>
        <time>2022-04-27T14:08:17Z</time>
      </trkpt>
      <trkpt lat="41.71458" lon="8.91539">
        <ele>321.7</ele>
        <time>2022-04-27T14:08:34Z</time>
      </trkpt>
      <trkpt lat="41.71464" lon="8.91541">
        <ele>321.7</ele>
        <time>2022-04-27T14:08:46Z</time>
      </trkpt>
      <trkpt lat="41.71473" lon="8.91538">
        <ele>322.18</ele>
        <time>2022-04-27T14:09:01Z</time>
      </trkpt>
      <trkpt lat="41.7148" lon="8.91526">
        <ele>322.66</ele>
        <time>2022-04-27T14:09:24Z</time>
      </trkpt>
      <trkpt lat="41.71488" lon="8.91522">
        <ele>321.7</ele>
        <time>2022-04-27T14:09:43Z</time>
      </trkpt>
      <trkpt lat="41.71492" lon="8.91518">
        <ele>322.66</ele>
        <time>2022-04-27T14:10:01Z</time>
      </trkpt>
      <trkpt lat="41.71504" lon="8.91511">
        <ele>323.62</ele>
        <time>2022-04-27T14:10:16Z</time>
      </trkpt>
      <trkpt lat="41.71522" lon="8.91516">
        <ele>324.58</ele>
        <time>2022-04-27T14:10:31Z</time>
      </trkpt>
      <trkpt lat="41.71533" lon="8.91515">
        <ele>325.06</ele>
        <time>2022-04-27T14:10:43Z</time>
      </trkpt>
      <trkpt lat="41.71543" lon="8.91507">
        <ele>325.54</ele>
        <time>2022-04-27T14:10:59Z</time>
      </trkpt>
      <trkpt lat="41.71553" lon="8.91498">
        <ele>326.02</ele>
        <time>2022-04-27T14:11:12Z</time>
      </trkpt>
      <trkpt lat="41.71569" lon="8.91496">
        <ele>326.5</ele>
        <time>2022-04-27T14:11:28Z</time>
      </trkpt>
      <trkpt lat="41.71585" lon="8.91506">
        <ele>327.95</ele>
        <time>2022-04-27T14:11:45Z</time>
      </trkpt>
      <trkpt lat="41.71593" lon="8.91504">
        <ele>328.91</ele>
        <time>2022-04-27T14:12:00Z</time>
      </trkpt>
      <trkpt lat="41.71591" lon="8.915">
        <ele>328.43</ele>
        <time>2022-04-27T14:12:04Z</time>
      </trkpt>
      <trkpt lat="41.71591" lon="8.91493">
        <ele>328.43</ele>
        <time>2022-04-27T14:12:18Z</time>
      </trkpt>
      <trkpt lat="41.71593" lon="8.915">
        <ele>327.47</ele>
        <time>2022-04-27T14:12:41Z</time>
      </trkpt>
      <trkpt lat="41.7159" lon="8.91505">
        <ele>327.47</ele>
        <time>2022-04-27T14:12:50Z</time>
      </trkpt>
      <trkpt lat="41.71592" lon="8.91528">
        <ele>327.95</ele>
        <time>2022-04-27T14:13:07Z</time>
      </trkpt>
      <trkpt lat="41.71596" lon="8.91536">
        <ele>328.91</ele>
        <time>2022-04-27T14:13:21Z</time>
      </trkpt>
      <trkpt lat="41.71601" lon="8.91558">
        <ele>329.87</ele>
        <time>2022-04-27T14:13:37Z</time>
      </trkpt>
      <trkpt lat="41.71602" lon="8.91566">
        <ele>329.87</ele>
        <time>2022-04-27T14:13:51Z</time>
      </trkpt>
      <trkpt lat="41.71606" lon="8.91571">
        <ele>329.87</ele>
        <time>2022-04-27T14:14:09Z</time>
      </trkpt>
      <trkpt lat="41.71612" lon="8.91593">
        <ele>330.35</ele>
        <time>2022-04-27T14:14:24Z</time>
      </trkpt>
      <trkpt lat="41.71613" lon="8.916">
        <ele>331.31</ele>
        <time>2022-04-27T14:14:29Z</time>
      </trkpt>
      <trkpt lat="41.71616" lon="8.91607">
        <ele>331.31</ele>
        <time>2022-04-27T14:14:40Z</time>
      </trkpt>
      <trkpt lat="41.71618" lon="8.91617">
        <ele>331.79</ele>
        <time>2022-04-27T14:14:47Z</time>
      </trkpt>
      <trkpt lat="41.71624" lon="8.91638">
        <ele>333.23</ele>
        <time>2022-04-27T14:15:03Z</time>
      </trkpt>
      <trkpt lat="41.7163" lon="8.91656">
        <ele>333.71</ele>
        <time>2022-04-27T14:15:16Z</time>
      </trkpt>
      <trkpt lat="41.71632" lon="8.9166">
        <ele>334.2</ele>
        <time>2022-04-27T14:15:30Z</time>
      </trkpt>
      <trkpt lat="41.71636" lon="8.91669">
        <ele>333.71</ele>
        <time>2022-04-27T14:15:39Z</time>
      </trkpt>
      <trkpt lat="41.7164" lon="8.91678">
        <ele>334.68</ele>
        <time>2022-04-27T14:15:51Z</time>
      </trkpt>
      <trkpt lat="41.71641" lon="8.91687">
        <ele>335.16</ele>
        <time>2022-04-27T14:16:03Z</time>
      </trkpt>
      <trkpt lat="41.71648" lon="8.91698">
        <ele>335.64</ele>
        <time>2022-04-27T14:16:14Z</time>
      </trkpt>
      <trkpt lat="41.71659" lon="8.9172">
        <ele>337.08</ele>
        <time>2022-04-27T14:16:32Z</time>
      </trkpt>
      <trkpt lat="41.71671" lon="8.9173">
        <ele>337.56</ele>
        <time>2022-04-27T14:16:50Z</time>
      </trkpt>
      <trkpt lat="41.71673" lon="8.91732">
        <ele>338.04</ele>
        <time>2022-04-27T14:17:11Z</time>
      </trkpt>
      <trkpt lat="41.7167" lon="8.91725">
        <ele>338.04</ele>
        <time>2022-04-27T14:17:17Z</time>
      </trkpt>
      <trkpt lat="41.71679" lon="8.91732">
        <ele>338.04</ele>
        <time>2022-04-27T14:17:40Z</time>
      </trkpt>
      <trkpt lat="41.71688" lon="8.91747">
        <ele>339</ele>
        <time>2022-04-27T14:18:00Z</time>
      </trkpt>
      <trkpt lat="41.71701" lon="8.91756">
        <ele>339.48</ele>
        <time>2022-04-27T14:18:21Z</time>
      </trkpt>
      <trkpt lat="41.71705" lon="8.91769">
        <ele>340.44</ele>
        <time>2022-04-27T14:18:35Z</time>
      </trkpt>
      <trkpt lat="41.71713" lon="8.9178">
        <ele>340.92</ele>
        <time>2022-04-27T14:18:50Z</time>
      </trkpt>
      <trkpt lat="41.71725" lon="8.91789">
        <ele>342.37</ele>
        <time>2022-04-27T14:19:05Z</time>
      </trkpt>
      <trkpt lat="41.7174" lon="8.91805">
        <ele>343.33</ele>
        <time>2022-04-27T14:19:23Z</time>
      </trkpt>
      <trkpt lat="41.71747" lon="8.9182">
        <ele>343.81</ele>
        <time>2022-04-27T14:19:38Z</time>
      </trkpt>
      <trkpt lat="41.71759" lon="8.91825">
        <ele>344.77</ele>
        <time>2022-04-27T14:19:52Z</time>
      </trkpt>
      <trkpt lat="41.71773" lon="8.91841">
        <ele>345.73</ele>
        <time>2022-04-27T14:20:11Z</time>
      </trkpt>
      <trkpt lat="41.71792" lon="8.91861">
        <ele>346.69</ele>
        <time>2022-04-27T14:20:28Z</time>
      </trkpt>
      <trkpt lat="41.71803" lon="8.91875">
        <ele>347.65</ele>
        <time>2022-04-27T14:20:43Z</time>
      </trkpt>
      <trkpt lat="41.7181" lon="8.91881">
        <ele>348.62</ele>
        <time>2022-04-27T14:20:55Z</time>
      </trkpt>
      <trkpt lat="41.71815" lon="8.91876">
        <ele>349.1</ele>
        <time>2022-04-27T14:21:08Z</time>
      </trkpt>
      <trkpt lat="41.71817" lon="8.91875">
        <ele>348.62</ele>
        <time>2022-04-27T14:21:23Z</time>
      </trkpt>
      <trkpt lat="41.71817" lon="8.91878">
        <ele>348.13</ele>
        <time>2022-04-27T14:21:42Z</time>
      </trkpt>
      <trkpt lat="41.71823" lon="8.91893">
        <ele>348.13</ele>
        <time>2022-04-27T14:21:53Z</time>
      </trkpt>
      <trkpt lat="41.71829" lon="8.91897">
        <ele>349.1</ele>
        <time>2022-04-27T14:22:02Z</time>
      </trkpt>
      <trkpt lat="41.71832" lon="8.91901">
        <ele>349.1</ele>
        <time>2022-04-27T14:22:06Z</time>
      </trkpt>
      <trkpt lat="41.71834" lon="8.91907">
        <ele>350.06</ele>
        <time>2022-04-27T14:22:18Z</time>
      </trkpt>
      <trkpt lat="41.71836" lon="8.91912">
        <ele>350.06</ele>
        <time>2022-04-27T14:22:35Z</time>
      </trkpt>
      <trkpt lat="41.71844" lon="8.91924">
        <ele>350.54</ele>
        <time>2022-04-27T14:22:49Z</time>
      </trkpt>
      <trkpt lat="41.71853" lon="8.91939">
        <ele>351.02</ele>
        <time>2022-04-27T14:23:05Z</time>
      </trkpt>
      <trkpt lat="41.71854" lon="8.91942">
        <ele>350.54</ele>
        <time>2022-04-27T14:23:07Z</time>
      </trkpt>
      <trkpt lat="41.71861" lon="8.91958">
        <ele>351.5</ele>
        <time>2022-04-27T14:23:20Z</time>
      </trkpt>
      <trkpt lat="41.71861" lon="8.91975">
        <ele>350.54</ele>
        <time>2022-04-27T14:23:35Z</time>
      </trkpt>
      <trkpt lat="41.71865" lon="8.91994">
        <ele>348.62</ele>
        <time>2022-04-27T14:23:52Z</time>
      </trkpt>
      <trkpt lat="41.71866" lon="8.92008">
        <ele>349.58</ele>
        <time>2022-04-27T14:24:05Z</time>
      </trkpt>
      <trkpt lat="41.71871" lon="8.92024">
        <ele>351.5</ele>
        <time>2022-04-27T14:24:19Z</time>
      </trkpt>
      <trkpt lat="41.71882" lon="8.92041">
        <ele>352.94</ele>
        <time>2022-04-27T14:24:36Z</time>
      </trkpt>
      <trkpt lat="41.71894" lon="8.92056">
        <ele>350.54</ele>
        <time>2022-04-27T14:24:53Z</time>
      </trkpt>
      <trkpt lat="41.71913" lon="8.92064">
        <ele>350.06</ele>
        <time>2022-04-27T14:25:10Z</time>
      </trkpt>
      <trkpt lat="41.71923" lon="8.92058">
        <ele>351.02</ele>
        <time>2022-04-27T14:25:23Z</time>
      </trkpt>
      <trkpt lat="41.71929" lon="8.92059">
        <ele>351.5</ele>
        <time>2022-04-27T14:25:32Z</time>
      </trkpt>
      <trkpt lat="41.71927" lon="8.9206">
        <ele>351.02</ele>
        <time>2022-04-27T14:25:45Z</time>
      </trkpt>
    </trkseg>
  </trk>
</gpx>